<?xml version="1.0" encoding="UTF-8" standalone="no" ?>
<gpx xmlns="http://www.topografix.com/GPX/1/1" xmlns:xsi="http://www.w3.org/2001/XMLSchema-instance" xsi:schemaLocation="http://www.topografix.com/GPX/1/1 http://www.topografix.com/GPX/1/1/gpx.xsd" version="1.1" creator="VisuGPX - https://www.visugpx.com">
  <metadata>
    <name>GR 53  Wissembourg - Climbach</name>
    <desc><![CDATA[Der Weg weicht vom GR 53 ab um die Straße zu vermeiden]]></desc>
  </metadata>
  <trk>
    <name><![CDATA[Tag 1 -  GR53 - Wissembourg bis Climbach]]></name>
    <trkseg>
      <trkpt lat="49.03565" lon="7.94445">
        <ele>157.7935791</ele>
        <time>2013-05-08T10:37:21Z</time>
      </trkpt>
      <trkpt lat="49.03571" lon="7.94448">
        <ele>157.7935791</ele>
        <time>2013-05-08T10:37:25Z</time>
      </trkpt>
      <trkpt lat="49.03572" lon="7.94447">
        <ele>165.9647217</ele>
        <time>2013-05-08T10:37:26Z</time>
      </trkpt>
      <trkpt lat="49.03641" lon="7.94449">
        <ele>166.4453125</ele>
        <time>2013-05-08T10:38:34Z</time>
      </trkpt>
      <trkpt lat="49.03663" lon="7.94457">
        <ele>166.4453125</ele>
        <time>2013-05-08T10:38:55Z</time>
      </trkpt>
      <trkpt lat="49.03668" lon="7.94455">
        <ele>163.0808105</ele>
        <time>2013-05-08T10:39:00Z</time>
      </trkpt>
      <trkpt lat="49.03669" lon="7.94455">
        <ele>163.0808105</ele>
        <time>2013-05-08T10:39:01Z</time>
      </trkpt>
      <trkpt lat="49.03677" lon="7.94449">
        <ele>159.7161865</ele>
        <time>2013-05-08T10:39:07Z</time>
      </trkpt>
      <trkpt lat="49.03677" lon="7.94447">
        <ele>158.7547607</ele>
        <time>2013-05-08T10:39:08Z</time>
      </trkpt>
      <trkpt lat="49.0368" lon="7.94428">
        <ele>158.2741699</ele>
        <time>2013-05-08T10:39:19Z</time>
      </trkpt>
      <trkpt lat="49.0368" lon="7.94426">
        <ele>158.2741699</ele>
        <time>2013-05-08T10:39:21Z</time>
      </trkpt>
      <trkpt lat="49.03682" lon="7.94421">
        <ele>156.8321533</ele>
        <time>2013-05-08T10:39:24Z</time>
      </trkpt>
      <trkpt lat="49.03685" lon="7.94407">
        <ele>154.4289551</ele>
        <time>2013-05-08T10:39:31Z</time>
      </trkpt>
      <trkpt lat="49.03694" lon="7.94387">
        <ele>155.3902588</ele>
        <time>2013-05-08T10:39:44Z</time>
      </trkpt>
      <trkpt lat="49.03695" lon="7.94375">
        <ele>155.8709717</ele>
        <time>2013-05-08T10:39:49Z</time>
      </trkpt>
      <trkpt lat="49.03691" lon="7.94365">
        <ele>155.8709717</ele>
        <time>2013-05-08T10:39:54Z</time>
      </trkpt>
      <trkpt lat="49.03689" lon="7.94354">
        <ele>155.8709717</ele>
        <time>2013-05-08T10:40:04Z</time>
      </trkpt>
      <trkpt lat="49.03691" lon="7.94351">
        <ele>155.8709717</ele>
        <time>2013-05-08T10:40:06Z</time>
      </trkpt>
      <trkpt lat="49.03691" lon="7.94342">
        <ele>156.3515625</ele>
        <time>2013-05-08T10:40:11Z</time>
      </trkpt>
      <trkpt lat="49.03694" lon="7.94325">
        <ele>155.8709717</ele>
        <time>2013-05-08T10:40:22Z</time>
      </trkpt>
      <trkpt lat="49.03695" lon="7.9432">
        <ele>155.8709717</ele>
        <time>2013-05-08T10:40:25Z</time>
      </trkpt>
      <trkpt lat="49.03694" lon="7.94307">
        <ele>154.4289551</ele>
        <time>2013-05-08T10:40:33Z</time>
      </trkpt>
      <trkpt lat="49.03687" lon="7.94299">
        <ele>151.064209</ele>
        <time>2013-05-08T10:40:41Z</time>
      </trkpt>
      <trkpt lat="49.03686" lon="7.94299">
        <ele>150.5836182</ele>
        <time>2013-05-08T10:40:42Z</time>
      </trkpt>
      <trkpt lat="49.03679" lon="7.94296">
        <ele>147.699707</ele>
        <time>2013-05-08T10:40:49Z</time>
      </trkpt>
      <trkpt lat="49.0367" lon="7.94294">
        <ele>145.2963867</ele>
        <time>2013-05-08T10:40:56Z</time>
      </trkpt>
      <trkpt lat="49.03665" lon="7.94292">
        <ele>144.3352051</ele>
        <time>2013-05-08T10:41:00Z</time>
      </trkpt>
      <trkpt lat="49.03662" lon="7.94293">
        <ele>143.3736572</ele>
        <time>2013-05-08T10:41:03Z</time>
      </trkpt>
      <trkpt lat="49.0365" lon="7.94291">
        <ele>140.4898682</ele>
        <time>2013-05-08T10:41:14Z</time>
      </trkpt>
      <trkpt lat="49.03646" lon="7.94289">
        <ele>137.1252441</ele>
        <time>2013-05-08T10:41:25Z</time>
      </trkpt>
      <trkpt lat="49.03639" lon="7.94281">
        <ele>135.6831055</ele>
        <time>2013-05-08T10:41:34Z</time>
      </trkpt>
      <trkpt lat="49.03631" lon="7.94257">
        <ele>134.2412109</ele>
        <time>2013-05-08T10:41:52Z</time>
      </trkpt>
      <trkpt lat="49.0363" lon="7.94241">
        <ele>134.7219238</ele>
        <time>2013-05-08T10:42:02Z</time>
      </trkpt>
      <trkpt lat="49.03633" lon="7.94218">
        <ele>134.7219238</ele>
        <time>2013-05-08T10:42:12Z</time>
      </trkpt>
      <trkpt lat="49.03633" lon="7.94217">
        <ele>134.7219238</ele>
        <time>2013-05-08T10:42:13Z</time>
      </trkpt>
      <trkpt lat="49.03631" lon="7.94199">
        <ele>134.2412109</ele>
        <time>2013-05-08T10:42:23Z</time>
      </trkpt>
      <trkpt lat="49.03631" lon="7.94192">
        <ele>134.7219238</ele>
        <time>2013-05-08T10:42:27Z</time>
      </trkpt>
      <trkpt lat="49.03625" lon="7.94183">
        <ele>134.7219238</ele>
        <time>2013-05-08T10:42:32Z</time>
      </trkpt>
      <trkpt lat="49.03627" lon="7.94169">
        <ele>134.7219238</ele>
        <time>2013-05-08T10:42:41Z</time>
      </trkpt>
      <trkpt lat="49.03635" lon="7.94144">
        <ele>135.2025146</ele>
        <time>2013-05-08T10:43:01Z</time>
      </trkpt>
      <trkpt lat="49.03629" lon="7.94143">
        <ele>135.2025146</ele>
        <time>2013-05-08T10:43:06Z</time>
      </trkpt>
      <trkpt lat="49.03622" lon="7.94138">
        <ele>134.7219238</ele>
        <time>2013-05-08T10:43:11Z</time>
      </trkpt>
      <trkpt lat="49.03618" lon="7.94132">
        <ele>134.7219238</ele>
        <time>2013-05-08T10:43:15Z</time>
      </trkpt>
      <trkpt lat="49.03616" lon="7.94114">
        <ele>134.7219238</ele>
        <time>2013-05-08T10:43:24Z</time>
      </trkpt>
      <trkpt lat="49.03606" lon="7.94112">
        <ele>134.7219238</ele>
        <time>2013-05-08T10:43:35Z</time>
      </trkpt>
      <trkpt lat="49.03605" lon="7.94114">
        <ele>134.7219238</ele>
        <time>2013-05-08T10:43:37Z</time>
      </trkpt>
      <trkpt lat="49.03592" lon="7.94112">
        <ele>135.2025146</ele>
        <time>2013-05-08T10:43:47Z</time>
      </trkpt>
      <trkpt lat="49.03578" lon="7.94112">
        <ele>136.6446533</ele>
        <time>2013-05-08T10:43:57Z</time>
      </trkpt>
      <trkpt lat="49.03574" lon="7.9411">
        <ele>136.6446533</ele>
        <time>2013-05-08T10:44:01Z</time>
      </trkpt>
      <trkpt lat="49.03559" lon="7.94104">
        <ele>138.5672607</ele>
        <time>2013-05-08T10:44:12Z</time>
      </trkpt>
      <trkpt lat="49.03554" lon="7.941">
        <ele>139.5284424</ele>
        <time>2013-05-08T10:44:16Z</time>
      </trkpt>
      <trkpt lat="49.03548" lon="7.94103">
        <ele>139.5284424</ele>
        <time>2013-05-08T10:44:23Z</time>
      </trkpt>
      <trkpt lat="49.0355" lon="7.94108">
        <ele>140.4898682</ele>
        <time>2013-05-08T10:45:23Z</time>
      </trkpt>
      <trkpt lat="49.03555" lon="7.94116">
        <ele>140.4898682</ele>
        <time>2013-05-08T10:46:48Z</time>
      </trkpt>
      <trkpt lat="49.03547" lon="7.94113">
        <ele>140.0091553</ele>
        <time>2013-05-08T10:47:12Z</time>
      </trkpt>
      <trkpt lat="49.03538" lon="7.94115">
        <ele>140.970459</ele>
        <time>2013-05-08T10:47:20Z</time>
      </trkpt>
      <trkpt lat="49.03529" lon="7.94119">
        <ele>141.4510498</ele>
        <time>2013-05-08T10:47:48Z</time>
      </trkpt>
      <trkpt lat="49.03533" lon="7.94093">
        <ele>140.4898682</ele>
        <time>2013-05-08T10:48:03Z</time>
      </trkpt>
      <trkpt lat="49.03533" lon="7.94092">
        <ele>140.4898682</ele>
        <time>2013-05-08T10:48:04Z</time>
      </trkpt>
      <trkpt lat="49.03536" lon="7.94086">
        <ele>139.5284424</ele>
        <time>2013-05-08T10:48:10Z</time>
      </trkpt>
      <trkpt lat="49.03543" lon="7.94066">
        <ele>137.1252441</ele>
        <time>2013-05-08T10:48:23Z</time>
      </trkpt>
      <trkpt lat="49.03545" lon="7.94063">
        <ele>137.605835</ele>
        <time>2013-05-08T10:48:26Z</time>
      </trkpt>
      <trkpt lat="49.03548" lon="7.94034">
        <ele>137.605835</ele>
        <time>2013-05-08T10:48:42Z</time>
      </trkpt>
      <trkpt lat="49.03565" lon="7.94015">
        <ele>137.605835</ele>
        <time>2013-05-08T10:49:00Z</time>
      </trkpt>
      <trkpt lat="49.03566" lon="7.93993">
        <ele>137.605835</ele>
        <time>2013-05-08T10:49:14Z</time>
      </trkpt>
      <trkpt lat="49.0357" lon="7.93981">
        <ele>139.0478516</ele>
        <time>2013-05-08T10:49:21Z</time>
      </trkpt>
      <trkpt lat="49.03575" lon="7.93961">
        <ele>141.4510498</ele>
        <time>2013-05-08T10:49:36Z</time>
      </trkpt>
      <trkpt lat="49.03574" lon="7.93954">
        <ele>141.9317627</ele>
        <time>2013-05-08T10:49:42Z</time>
      </trkpt>
      <trkpt lat="49.03574" lon="7.93945">
        <ele>142.4124756</ele>
        <time>2013-05-08T10:49:50Z</time>
      </trkpt>
      <trkpt lat="49.03574" lon="7.93932">
        <ele>142.4124756</ele>
        <time>2013-05-08T10:49:59Z</time>
      </trkpt>
      <trkpt lat="49.03578" lon="7.93917">
        <ele>142.4124756</ele>
        <time>2013-05-08T10:50:07Z</time>
      </trkpt>
      <trkpt lat="49.03579" lon="7.93915">
        <ele>142.4124756</ele>
        <time>2013-05-08T10:50:10Z</time>
      </trkpt>
      <trkpt lat="49.03592" lon="7.93896">
        <ele>142.8930664</ele>
        <time>2013-05-08T10:50:21Z</time>
      </trkpt>
      <trkpt lat="49.03595" lon="7.9388">
        <ele>143.3736572</ele>
        <time>2013-05-08T10:50:31Z</time>
      </trkpt>
      <trkpt lat="49.03593" lon="7.93864">
        <ele>143.8543701</ele>
        <time>2013-05-08T10:50:41Z</time>
      </trkpt>
      <trkpt lat="49.03591" lon="7.93849">
        <ele>144.3352051</ele>
        <time>2013-05-08T10:50:49Z</time>
      </trkpt>
      <trkpt lat="49.03591" lon="7.93839">
        <ele>145.2963867</ele>
        <time>2013-05-08T10:50:57Z</time>
      </trkpt>
      <trkpt lat="49.03589" lon="7.93821">
        <ele>146.2578125</ele>
        <time>2013-05-08T10:51:07Z</time>
      </trkpt>
      <trkpt lat="49.0359" lon="7.93813">
        <ele>147.2189941</ele>
        <time>2013-05-08T10:51:12Z</time>
      </trkpt>
      <trkpt lat="49.03585" lon="7.93805">
        <ele>147.699707</ele>
        <time>2013-05-08T10:51:19Z</time>
      </trkpt>
      <trkpt lat="49.03582" lon="7.938">
        <ele>148.1804199</ele>
        <time>2013-05-08T10:51:24Z</time>
      </trkpt>
      <trkpt lat="49.03578" lon="7.93797">
        <ele>148.1804199</ele>
        <time>2013-05-08T10:51:27Z</time>
      </trkpt>
      <trkpt lat="49.03574" lon="7.93792">
        <ele>149.1416016</ele>
        <time>2013-05-08T10:51:32Z</time>
      </trkpt>
      <trkpt lat="49.03568" lon="7.93786">
        <ele>150.1030273</ele>
        <time>2013-05-08T10:51:37Z</time>
      </trkpt>
      <trkpt lat="49.03564" lon="7.93776">
        <ele>151.064209</ele>
        <time>2013-05-08T10:51:45Z</time>
      </trkpt>
      <trkpt lat="49.03563" lon="7.93767">
        <ele>151.5449219</ele>
        <time>2013-05-08T10:51:51Z</time>
      </trkpt>
      <trkpt lat="49.03547" lon="7.93751">
        <ele>153.4676514</ele>
        <time>2013-05-08T10:52:06Z</time>
      </trkpt>
      <trkpt lat="49.03545" lon="7.93743">
        <ele>153.9483643</ele>
        <time>2013-05-08T10:52:09Z</time>
      </trkpt>
      <trkpt lat="49.03545" lon="7.93741">
        <ele>153.9483643</ele>
        <time>2013-05-08T10:52:11Z</time>
      </trkpt>
      <trkpt lat="49.03542" lon="7.93735">
        <ele>154.4289551</ele>
        <time>2013-05-08T10:52:16Z</time>
      </trkpt>
      <trkpt lat="49.03541" lon="7.93728">
        <ele>155.3902588</ele>
        <time>2013-05-08T10:52:21Z</time>
      </trkpt>
      <trkpt lat="49.03539" lon="7.93727">
        <ele>155.3902588</ele>
        <time>2013-05-08T10:52:25Z</time>
      </trkpt>
      <trkpt lat="49.03527" lon="7.93716">
        <ele>156.8321533</ele>
        <time>2013-05-08T10:52:36Z</time>
      </trkpt>
      <trkpt lat="49.03525" lon="7.93715">
        <ele>157.3128662</ele>
        <time>2013-05-08T10:52:41Z</time>
      </trkpt>
      <trkpt lat="49.03522" lon="7.93711">
        <ele>157.7935791</ele>
        <time>2013-05-08T10:52:43Z</time>
      </trkpt>
      <trkpt lat="49.03518" lon="7.93705">
        <ele>158.7547607</ele>
        <time>2013-05-08T10:52:52Z</time>
      </trkpt>
      <trkpt lat="49.03515" lon="7.93702">
        <ele>159.2354736</ele>
        <time>2013-05-08T10:52:56Z</time>
      </trkpt>
      <trkpt lat="49.03505" lon="7.93688">
        <ele>160.1968994</ele>
        <time>2013-05-08T10:53:09Z</time>
      </trkpt>
      <trkpt lat="49.035" lon="7.9368">
        <ele>160.6774902</ele>
        <time>2013-05-08T10:53:16Z</time>
      </trkpt>
      <trkpt lat="49.03491" lon="7.93665">
        <ele>161.638916</ele>
        <time>2013-05-08T10:53:28Z</time>
      </trkpt>
      <trkpt lat="49.03483" lon="7.93658">
        <ele>162.6000977</ele>
        <time>2013-05-08T10:53:40Z</time>
      </trkpt>
      <trkpt lat="49.03471" lon="7.93643">
        <ele>163.0808105</ele>
        <time>2013-05-08T10:53:55Z</time>
      </trkpt>
      <trkpt lat="49.0346" lon="7.93623">
        <ele>163.5615234</ele>
        <time>2013-05-08T10:54:07Z</time>
      </trkpt>
      <trkpt lat="49.03453" lon="7.93608">
        <ele>162.1195068</ele>
        <time>2013-05-08T10:54:20Z</time>
      </trkpt>
      <trkpt lat="49.03452" lon="7.93604">
        <ele>165.9647217</ele>
        <time>2013-05-08T10:54:22Z</time>
      </trkpt>
      <trkpt lat="49.03451" lon="7.93602">
        <ele>170.2906494</ele>
        <time>2013-05-08T10:54:24Z</time>
      </trkpt>
      <trkpt lat="49.03449" lon="7.93599">
        <ele>162.1195068</ele>
        <time>2013-05-08T10:54:26Z</time>
      </trkpt>
      <trkpt lat="49.03443" lon="7.9359">
        <ele>165.4841309</ele>
        <time>2013-05-08T10:54:27Z</time>
      </trkpt>
      <trkpt lat="49.03434" lon="7.93584">
        <ele>165.9647217</ele>
        <time>2013-05-08T10:54:36Z</time>
      </trkpt>
      <trkpt lat="49.0343" lon="7.93573">
        <ele>167.8873291</ele>
        <time>2013-05-08T10:54:43Z</time>
      </trkpt>
      <trkpt lat="49.03428" lon="7.93568">
        <ele>168.8487549</ele>
        <time>2013-05-08T10:54:47Z</time>
      </trkpt>
      <trkpt lat="49.03411" lon="7.93545">
        <ele>169.8100586</ele>
        <time>2013-05-08T10:55:12Z</time>
      </trkpt>
      <trkpt lat="49.0341" lon="7.9355">
        <ele>169.3294678</ele>
        <time>2013-05-08T10:55:27Z</time>
      </trkpt>
      <trkpt lat="49.03404" lon="7.93534">
        <ele>170.7713623</ele>
        <time>2013-05-08T10:55:39Z</time>
      </trkpt>
      <trkpt lat="49.0339" lon="7.93503">
        <ele>174.1358643</ele>
        <time>2013-05-08T10:56:03Z</time>
      </trkpt>
      <trkpt lat="49.03377" lon="7.9347">
        <ele>177.0200195</ele>
        <time>2013-05-08T10:56:28Z</time>
      </trkpt>
      <trkpt lat="49.03358" lon="7.93435">
        <ele>179.9038086</ele>
        <time>2013-05-08T10:56:56Z</time>
      </trkpt>
      <trkpt lat="49.03357" lon="7.93416">
        <ele>181.3458252</ele>
        <time>2013-05-08T10:57:19Z</time>
      </trkpt>
      <trkpt lat="49.03341" lon="7.93398">
        <ele>182.7878418</ele>
        <time>2013-05-08T10:57:39Z</time>
      </trkpt>
      <trkpt lat="49.03317" lon="7.93361">
        <ele>185.6717529</ele>
        <time>2013-05-08T10:58:11Z</time>
      </trkpt>
      <trkpt lat="49.03312" lon="7.93353">
        <ele>186.6331787</ele>
        <time>2013-05-08T10:58:17Z</time>
      </trkpt>
      <trkpt lat="49.03311" lon="7.93317">
        <ele>187.5943604</ele>
        <time>2013-05-08T10:58:39Z</time>
      </trkpt>
      <trkpt lat="49.03319" lon="7.93283">
        <ele>188.5557861</ele>
        <time>2013-05-08T10:59:00Z</time>
      </trkpt>
      <trkpt lat="49.03307" lon="7.93242">
        <ele>190.4783936</ele>
        <time>2013-05-08T10:59:25Z</time>
      </trkpt>
      <trkpt lat="49.03295" lon="7.93209">
        <ele>191.9202881</ele>
        <time>2013-05-08T10:59:48Z</time>
      </trkpt>
      <trkpt lat="49.03285" lon="7.93179">
        <ele>192.8817139</ele>
        <time>2013-05-08T11:00:08Z</time>
      </trkpt>
      <trkpt lat="49.03281" lon="7.93133">
        <ele>195.2849121</ele>
        <time>2013-05-08T11:00:35Z</time>
      </trkpt>
      <trkpt lat="49.03281" lon="7.93091">
        <ele>198.6495361</ele>
        <time>2013-05-08T11:00:59Z</time>
      </trkpt>
      <trkpt lat="49.0328" lon="7.93046">
        <ele>201.0528564</ele>
        <time>2013-05-08T11:01:27Z</time>
      </trkpt>
      <trkpt lat="49.03281" lon="7.93023">
        <ele>202.494873</ele>
        <time>2013-05-08T11:01:44Z</time>
      </trkpt>
      <trkpt lat="49.03281" lon="7.93006">
        <ele>203.9368896</ele>
        <time>2013-05-08T11:01:56Z</time>
      </trkpt>
      <trkpt lat="49.03281" lon="7.92975">
        <ele>206.3400879</ele>
        <time>2013-05-08T11:02:17Z</time>
      </trkpt>
      <trkpt lat="49.03283" lon="7.92959">
        <ele>207.7821045</ele>
        <time>2013-05-08T11:02:27Z</time>
      </trkpt>
      <trkpt lat="49.03287" lon="7.92936">
        <ele>210.1854248</ele>
        <time>2013-05-08T11:02:43Z</time>
      </trkpt>
      <trkpt lat="49.03292" lon="7.9292">
        <ele>212.1080322</ele>
        <time>2013-05-08T11:02:58Z</time>
      </trkpt>
      <trkpt lat="49.03293" lon="7.92914">
        <ele>212.588623</ele>
        <time>2013-05-08T11:03:02Z</time>
      </trkpt>
      <trkpt lat="49.03303" lon="7.92892">
        <ele>215.9532471</ele>
        <time>2013-05-08T11:03:20Z</time>
      </trkpt>
      <trkpt lat="49.03309" lon="7.92873">
        <ele>218.8372803</ele>
        <time>2013-05-08T11:03:37Z</time>
      </trkpt>
      <trkpt lat="49.03306" lon="7.92862">
        <ele>220.2791748</ele>
        <time>2013-05-08T11:03:46Z</time>
      </trkpt>
      <trkpt lat="49.0329" lon="7.92828">
        <ele>222.6824951</ele>
        <time>2013-05-08T11:04:13Z</time>
      </trkpt>
      <trkpt lat="49.03284" lon="7.92812">
        <ele>224.1245117</ele>
        <time>2013-05-08T11:04:27Z</time>
      </trkpt>
      <trkpt lat="49.03286" lon="7.92803">
        <ele>224.6052246</ele>
        <time>2013-05-08T11:04:33Z</time>
      </trkpt>
      <trkpt lat="49.03292" lon="7.92779">
        <ele>227.0085449</ele>
        <time>2013-05-08T11:04:51Z</time>
      </trkpt>
      <trkpt lat="49.03294" lon="7.92766">
        <ele>227.9697266</ele>
        <time>2013-05-08T11:05:00Z</time>
      </trkpt>
      <trkpt lat="49.03295" lon="7.92762">
        <ele>228.4504395</ele>
        <time>2013-05-08T11:05:02Z</time>
      </trkpt>
      <trkpt lat="49.03303" lon="7.92728">
        <ele>229.892334</ele>
        <time>2013-05-08T11:05:23Z</time>
      </trkpt>
      <trkpt lat="49.03303" lon="7.92688">
        <ele>231.3343506</ele>
        <time>2013-05-08T11:05:48Z</time>
      </trkpt>
      <trkpt lat="49.03309" lon="7.92644">
        <ele>231.8149414</ele>
        <time>2013-05-08T11:06:13Z</time>
      </trkpt>
      <trkpt lat="49.03328" lon="7.9262">
        <ele>231.3343506</ele>
        <time>2013-05-08T11:06:33Z</time>
      </trkpt>
      <trkpt lat="49.03355" lon="7.9261">
        <ele>231.3343506</ele>
        <time>2013-05-08T11:06:57Z</time>
      </trkpt>
      <trkpt lat="49.03372" lon="7.92606">
        <ele>231.8149414</ele>
        <time>2013-05-08T11:07:10Z</time>
      </trkpt>
      <trkpt lat="49.0338" lon="7.92597">
        <ele>231.8149414</ele>
        <time>2013-05-08T11:07:30Z</time>
      </trkpt>
      <trkpt lat="49.03385" lon="7.92591">
        <ele>232.7764893</ele>
        <time>2013-05-08T11:08:25Z</time>
      </trkpt>
      <trkpt lat="49.03393" lon="7.92557">
        <ele>234.2183838</ele>
        <time>2013-05-08T11:08:47Z</time>
      </trkpt>
      <trkpt lat="49.03378" lon="7.92514">
        <ele>236.6217041</ele>
        <time>2013-05-08T11:09:15Z</time>
      </trkpt>
      <trkpt lat="49.03368" lon="7.92484">
        <ele>238.5443115</ele>
        <time>2013-05-08T11:09:35Z</time>
      </trkpt>
      <trkpt lat="49.0336" lon="7.9243">
        <ele>240.467041</ele>
        <time>2013-05-08T11:10:08Z</time>
      </trkpt>
      <trkpt lat="49.03346" lon="7.92389">
        <ele>241.9089355</ele>
        <time>2013-05-08T11:10:34Z</time>
      </trkpt>
      <trkpt lat="49.03321" lon="7.92345">
        <ele>243.3508301</ele>
        <time>2013-05-08T11:11:06Z</time>
      </trkpt>
      <trkpt lat="49.0331" lon="7.9231">
        <ele>244.3122559</ele>
        <time>2013-05-08T11:11:31Z</time>
      </trkpt>
      <trkpt lat="49.03313" lon="7.92286">
        <ele>244.3122559</ele>
        <time>2013-05-08T11:11:47Z</time>
      </trkpt>
      <trkpt lat="49.03313" lon="7.9228">
        <ele>244.7928467</ele>
        <time>2013-05-08T11:11:50Z</time>
      </trkpt>
      <trkpt lat="49.0331" lon="7.92245">
        <ele>244.7928467</ele>
        <time>2013-05-08T11:12:12Z</time>
      </trkpt>
      <trkpt lat="49.03302" lon="7.92229">
        <ele>245.7541504</ele>
        <time>2013-05-08T11:12:28Z</time>
      </trkpt>
      <trkpt lat="49.03294" lon="7.92222">
        <ele>244.7928467</ele>
        <time>2013-05-08T11:12:47Z</time>
      </trkpt>
      <trkpt lat="49.03299" lon="7.92217">
        <ele>245.2734375</ele>
        <time>2013-05-08T11:12:57Z</time>
      </trkpt>
      <trkpt lat="49.03299" lon="7.92218">
        <ele>244.7928467</ele>
        <time>2013-05-08T11:13:33Z</time>
      </trkpt>
      <trkpt lat="49.03297" lon="7.92217">
        <ele>246.7154541</ele>
        <time>2013-05-08T11:15:49Z</time>
      </trkpt>
      <trkpt lat="49.03296" lon="7.92218">
        <ele>246.2348633</ele>
        <time>2013-05-08T11:16:17Z</time>
      </trkpt>
      <trkpt lat="49.03295" lon="7.92219">
        <ele>246.2348633</ele>
        <time>2013-05-08T11:16:34Z</time>
      </trkpt>
      <trkpt lat="49.03289" lon="7.92213">
        <ele>246.7154541</ele>
        <time>2013-05-08T11:16:55Z</time>
      </trkpt>
      <trkpt lat="49.03276" lon="7.92202">
        <ele>247.6767578</ele>
        <time>2013-05-08T11:17:09Z</time>
      </trkpt>
      <trkpt lat="49.03256" lon="7.92186">
        <ele>249.1187744</ele>
        <time>2013-05-08T11:17:30Z</time>
      </trkpt>
      <trkpt lat="49.03234" lon="7.92157">
        <ele>250.560791</ele>
        <time>2013-05-08T11:17:55Z</time>
      </trkpt>
      <trkpt lat="49.03221" lon="7.92117">
        <ele>251.5220947</ele>
        <time>2013-05-08T11:18:22Z</time>
      </trkpt>
      <trkpt lat="49.03203" lon="7.92073">
        <ele>252.4833984</ele>
        <time>2013-05-08T11:18:50Z</time>
      </trkpt>
      <trkpt lat="49.03187" lon="7.92027">
        <ele>253.925415</ele>
        <time>2013-05-08T11:19:18Z</time>
      </trkpt>
      <trkpt lat="49.0317" lon="7.91985">
        <ele>255.8480225</ele>
        <time>2013-05-08T11:19:45Z</time>
      </trkpt>
      <trkpt lat="49.03159" lon="7.9195">
        <ele>257.2900391</ele>
        <time>2013-05-08T11:20:08Z</time>
      </trkpt>
      <trkpt lat="49.03151" lon="7.919">
        <ele>258.7319336</ele>
        <time>2013-05-08T11:20:35Z</time>
      </trkpt>
      <trkpt lat="49.03147" lon="7.91856">
        <ele>259.6933594</ele>
        <time>2013-05-08T11:21:00Z</time>
      </trkpt>
      <trkpt lat="49.03144" lon="7.91845">
        <ele>259.6933594</ele>
        <time>2013-05-08T11:21:07Z</time>
      </trkpt>
      <trkpt lat="49.03135" lon="7.91819">
        <ele>260.654541</ele>
        <time>2013-05-08T11:21:22Z</time>
      </trkpt>
      <trkpt lat="49.03115" lon="7.91791">
        <ele>262.0965576</ele>
        <time>2013-05-08T11:21:45Z</time>
      </trkpt>
      <trkpt lat="49.03101" lon="7.91772">
        <ele>263.5385742</ele>
        <time>2013-05-08T11:22:03Z</time>
      </trkpt>
      <trkpt lat="49.03099" lon="7.91768">
        <ele>264.0192871</ele>
        <time>2013-05-08T11:22:06Z</time>
      </trkpt>
      <trkpt lat="49.03096" lon="7.91765">
        <ele>264.0192871</ele>
        <time>2013-05-08T11:22:10Z</time>
      </trkpt>
      <trkpt lat="49.03095" lon="7.91762">
        <ele>264.0192871</ele>
        <time>2013-05-08T11:22:13Z</time>
      </trkpt>
      <trkpt lat="49.03087" lon="7.9175">
        <ele>265.4613037</ele>
        <time>2013-05-08T11:22:23Z</time>
      </trkpt>
      <trkpt lat="49.03082" lon="7.91729">
        <ele>264.9805908</ele>
        <time>2013-05-08T11:22:33Z</time>
      </trkpt>
      <trkpt lat="49.03084" lon="7.9172">
        <ele>264.0192871</ele>
        <time>2013-05-08T11:22:38Z</time>
      </trkpt>
      <trkpt lat="49.03086" lon="7.91718">
        <ele>263.5385742</ele>
        <time>2013-05-08T11:22:41Z</time>
      </trkpt>
      <trkpt lat="49.03105" lon="7.91696">
        <ele>260.654541</ele>
        <time>2013-05-08T11:23:03Z</time>
      </trkpt>
      <trkpt lat="49.03123" lon="7.9167">
        <ele>257.2900391</ele>
        <time>2013-05-08T11:23:24Z</time>
      </trkpt>
      <trkpt lat="49.03137" lon="7.91645">
        <ele>254.4060059</ele>
        <time>2013-05-08T11:23:42Z</time>
      </trkpt>
      <trkpt lat="49.03149" lon="7.91618">
        <ele>251.0413818</ele>
        <time>2013-05-08T11:24:01Z</time>
      </trkpt>
      <trkpt lat="49.03155" lon="7.91584">
        <ele>248.1575928</ele>
        <time>2013-05-08T11:24:21Z</time>
      </trkpt>
      <trkpt lat="49.03155" lon="7.91583">
        <ele>247.6767578</ele>
        <time>2013-05-08T11:24:22Z</time>
      </trkpt>
      <trkpt lat="49.03156" lon="7.91576">
        <ele>247.1960449</ele>
        <time>2013-05-08T11:24:26Z</time>
      </trkpt>
      <trkpt lat="49.03156" lon="7.91567">
        <ele>246.2348633</ele>
        <time>2013-05-08T11:24:31Z</time>
      </trkpt>
      <trkpt lat="49.03152" lon="7.91548">
        <ele>244.3122559</ele>
        <time>2013-05-08T11:24:44Z</time>
      </trkpt>
      <trkpt lat="49.03153" lon="7.91523">
        <ele>241.9089355</ele>
        <time>2013-05-08T11:24:58Z</time>
      </trkpt>
      <trkpt lat="49.03153" lon="7.91518">
        <ele>241.4282227</ele>
        <time>2013-05-08T11:25:01Z</time>
      </trkpt>
      <trkpt lat="49.03153" lon="7.91506">
        <ele>240.467041</ele>
        <time>2013-05-08T11:25:07Z</time>
      </trkpt>
      <trkpt lat="49.03155" lon="7.91497">
        <ele>239.5054932</ele>
        <time>2013-05-08T11:25:13Z</time>
      </trkpt>
      <trkpt lat="49.03154" lon="7.91491">
        <ele>239.0249023</ele>
        <time>2013-05-08T11:25:16Z</time>
      </trkpt>
      <trkpt lat="49.03156" lon="7.9148">
        <ele>238.0635986</ele>
        <time>2013-05-08T11:25:23Z</time>
      </trkpt>
      <trkpt lat="49.03157" lon="7.91476">
        <ele>237.5828857</ele>
        <time>2013-05-08T11:25:25Z</time>
      </trkpt>
      <trkpt lat="49.0316" lon="7.91468">
        <ele>237.1022949</ele>
        <time>2013-05-08T11:25:30Z</time>
      </trkpt>
      <trkpt lat="49.03161" lon="7.9146">
        <ele>236.1409912</ele>
        <time>2013-05-08T11:25:35Z</time>
      </trkpt>
      <trkpt lat="49.03164" lon="7.91456">
        <ele>235.6602783</ele>
        <time>2013-05-08T11:25:38Z</time>
      </trkpt>
      <trkpt lat="49.03169" lon="7.9145">
        <ele>234.6990967</ele>
        <time>2013-05-08T11:25:43Z</time>
      </trkpt>
      <trkpt lat="49.03171" lon="7.91446">
        <ele>234.2183838</ele>
        <time>2013-05-08T11:25:46Z</time>
      </trkpt>
      <trkpt lat="49.03174" lon="7.91443">
        <ele>233.7376709</ele>
        <time>2013-05-08T11:25:49Z</time>
      </trkpt>
      <trkpt lat="49.03188" lon="7.91427">
        <ele>231.3343506</ele>
        <time>2013-05-08T11:26:03Z</time>
      </trkpt>
      <trkpt lat="49.03201" lon="7.91406">
        <ele>228.4504395</ele>
        <time>2013-05-08T11:26:20Z</time>
      </trkpt>
      <trkpt lat="49.03208" lon="7.91395">
        <ele>227.0085449</ele>
        <time>2013-05-08T11:26:31Z</time>
      </trkpt>
      <trkpt lat="49.03218" lon="7.91381">
        <ele>224.6052246</ele>
        <time>2013-05-08T11:26:45Z</time>
      </trkpt>
      <trkpt lat="49.03222" lon="7.91374">
        <ele>223.6437988</ele>
        <time>2013-05-08T11:26:51Z</time>
      </trkpt>
      <trkpt lat="49.03234" lon="7.91359">
        <ele>221.7211914</ele>
        <time>2013-05-08T11:27:03Z</time>
      </trkpt>
      <trkpt lat="49.03236" lon="7.91355">
        <ele>221.2406006</ele>
        <time>2013-05-08T11:27:06Z</time>
      </trkpt>
      <trkpt lat="49.03241" lon="7.91347">
        <ele>219.3179932</ele>
        <time>2013-05-08T11:27:13Z</time>
      </trkpt>
      <trkpt lat="49.03247" lon="7.91338">
        <ele>218.3565674</ele>
        <time>2013-05-08T11:27:21Z</time>
      </trkpt>
      <trkpt lat="49.03256" lon="7.91326">
        <ele>216.43396</ele>
        <time>2013-05-08T11:27:32Z</time>
      </trkpt>
      <trkpt lat="49.03267" lon="7.91312">
        <ele>214.9919434</ele>
        <time>2013-05-08T11:27:46Z</time>
      </trkpt>
      <trkpt lat="49.03274" lon="7.91303">
        <ele>213.5500488</ele>
        <time>2013-05-08T11:28:01Z</time>
      </trkpt>
      <trkpt lat="49.03275" lon="7.91302">
        <ele>213.5500488</ele>
        <time>2013-05-08T11:28:02Z</time>
      </trkpt>
      <trkpt lat="49.0329" lon="7.91285">
        <ele>212.1080322</ele>
        <time>2013-05-08T11:28:19Z</time>
      </trkpt>
      <trkpt lat="49.0329" lon="7.91283">
        <ele>212.1080322</ele>
        <time>2013-05-08T11:28:20Z</time>
      </trkpt>
      <trkpt lat="49.03311" lon="7.9126">
        <ele>209.2241211</ele>
        <time>2013-05-08T11:28:42Z</time>
      </trkpt>
      <trkpt lat="49.03332" lon="7.91241">
        <ele>207.3013916</ele>
        <time>2013-05-08T11:29:04Z</time>
      </trkpt>
      <trkpt lat="49.03351" lon="7.91219">
        <ele>205.3787842</ele>
        <time>2013-05-08T11:29:25Z</time>
      </trkpt>
      <trkpt lat="49.03363" lon="7.91199">
        <ele>203.4561768</ele>
        <time>2013-05-08T11:29:39Z</time>
      </trkpt>
      <trkpt lat="49.03366" lon="7.9119">
        <ele>202.9754639</ele>
        <time>2013-05-08T11:29:44Z</time>
      </trkpt>
      <trkpt lat="49.03369" lon="7.91183">
        <ele>202.494873</ele>
        <time>2013-05-08T11:29:49Z</time>
      </trkpt>
      <trkpt lat="49.03373" lon="7.9117">
        <ele>202.0142822</ele>
        <time>2013-05-08T11:29:57Z</time>
      </trkpt>
      <trkpt lat="49.03382" lon="7.91137">
        <ele>200.5722656</ele>
        <time>2013-05-08T11:30:19Z</time>
      </trkpt>
      <trkpt lat="49.03393" lon="7.91095">
        <ele>197.6882324</ele>
        <time>2013-05-08T11:30:41Z</time>
      </trkpt>
      <trkpt lat="49.03393" lon="7.91093">
        <ele>197.6882324</ele>
        <time>2013-05-08T11:30:42Z</time>
      </trkpt>
      <trkpt lat="49.03396" lon="7.91067">
        <ele>195.2849121</ele>
        <time>2013-05-08T11:30:59Z</time>
      </trkpt>
      <trkpt lat="49.03401" lon="7.91053">
        <ele>193.8430176</ele>
        <time>2013-05-08T11:31:10Z</time>
      </trkpt>
      <trkpt lat="49.03411" lon="7.9102">
        <ele>191.9202881</ele>
        <time>2013-05-08T11:31:26Z</time>
      </trkpt>
      <trkpt lat="49.03419" lon="7.91004">
        <ele>190.4783936</ele>
        <time>2013-05-08T11:31:36Z</time>
      </trkpt>
      <trkpt lat="49.03423" lon="7.91001">
        <ele>190.9589844</ele>
        <time>2013-05-08T11:31:42Z</time>
      </trkpt>
      <trkpt lat="49.03442" lon="7.90982">
        <ele>188.5557861</ele>
        <time>2013-05-08T11:32:00Z</time>
      </trkpt>
      <trkpt lat="49.03443" lon="7.90977">
        <ele>188.5557861</ele>
        <time>2013-05-08T11:32:04Z</time>
      </trkpt>
      <trkpt lat="49.03436" lon="7.90954">
        <ele>188.0750732</ele>
        <time>2013-05-08T11:32:20Z</time>
      </trkpt>
      <trkpt lat="49.03424" lon="7.90942">
        <ele>189.036377</ele>
        <time>2013-05-08T11:32:39Z</time>
      </trkpt>
      <trkpt lat="49.03417" lon="7.90945">
        <ele>189.9976807</ele>
        <time>2013-05-08T11:32:53Z</time>
      </trkpt>
      <trkpt lat="49.03399" lon="7.90954">
        <ele>191.4395752</ele>
        <time>2013-05-08T11:33:12Z</time>
      </trkpt>
      <trkpt lat="49.03397" lon="7.90956">
        <ele>191.4395752</ele>
        <time>2013-05-08T11:33:15Z</time>
      </trkpt>
      <trkpt lat="49.03381" lon="7.90953">
        <ele>192.8817139</ele>
        <time>2013-05-08T11:33:28Z</time>
      </trkpt>
      <trkpt lat="49.03358" lon="7.90958">
        <ele>194.8043213</ele>
        <time>2013-05-08T11:33:45Z</time>
      </trkpt>
      <trkpt lat="49.03343" lon="7.90946">
        <ele>196.7269287</ele>
        <time>2013-05-08T11:33:58Z</time>
      </trkpt>
      <trkpt lat="49.03339" lon="7.90912">
        <ele>199.6108398</ele>
        <time>2013-05-08T11:34:20Z</time>
      </trkpt>
      <trkpt lat="49.03335" lon="7.90901">
        <ele>201.5335693</ele>
        <time>2013-05-08T11:34:31Z</time>
      </trkpt>
      <trkpt lat="49.03331" lon="7.90882">
        <ele>203.4561768</ele>
        <time>2013-05-08T11:34:45Z</time>
      </trkpt>
      <trkpt lat="49.03326" lon="7.9086">
        <ele>204.8980713</ele>
        <time>2013-05-08T11:34:59Z</time>
      </trkpt>
      <trkpt lat="49.03321" lon="7.90825">
        <ele>207.7821045</ele>
        <time>2013-05-08T11:35:20Z</time>
      </trkpt>
      <trkpt lat="49.03319" lon="7.90815">
        <ele>208.2628174</ele>
        <time>2013-05-08T11:35:27Z</time>
      </trkpt>
      <trkpt lat="49.03316" lon="7.90809">
        <ele>208.7434082</ele>
        <time>2013-05-08T11:35:31Z</time>
      </trkpt>
      <trkpt lat="49.03307" lon="7.90785">
        <ele>209.704834</ele>
        <time>2013-05-08T11:35:48Z</time>
      </trkpt>
      <trkpt lat="49.03302" lon="7.90768">
        <ele>210.6660156</ele>
        <time>2013-05-08T11:35:59Z</time>
      </trkpt>
      <trkpt lat="49.033" lon="7.90748">
        <ele>211.6274414</ele>
        <time>2013-05-08T11:36:10Z</time>
      </trkpt>
      <trkpt lat="49.03299" lon="7.90741">
        <ele>212.588623</ele>
        <time>2013-05-08T11:36:14Z</time>
      </trkpt>
      <trkpt lat="49.03283" lon="7.90705">
        <ele>214.5112305</ele>
        <time>2013-05-08T11:36:39Z</time>
      </trkpt>
      <trkpt lat="49.03275" lon="7.90676">
        <ele>214.9919434</ele>
        <time>2013-05-08T11:36:57Z</time>
      </trkpt>
      <trkpt lat="49.03273" lon="7.9067">
        <ele>214.9919434</ele>
        <time>2013-05-08T11:37:01Z</time>
      </trkpt>
      <trkpt lat="49.03271" lon="7.90643">
        <ele>216.43396</ele>
        <time>2013-05-08T11:37:17Z</time>
      </trkpt>
      <trkpt lat="49.03271" lon="7.90637">
        <ele>216.9146729</ele>
        <time>2013-05-08T11:37:21Z</time>
      </trkpt>
      <trkpt lat="49.03269" lon="7.90612">
        <ele>218.3565674</ele>
        <time>2013-05-08T11:37:38Z</time>
      </trkpt>
      <trkpt lat="49.03265" lon="7.90588">
        <ele>219.3179932</ele>
        <time>2013-05-08T11:37:53Z</time>
      </trkpt>
      <trkpt lat="49.03261" lon="7.90565">
        <ele>220.2791748</ele>
        <time>2013-05-08T11:38:10Z</time>
      </trkpt>
      <trkpt lat="49.03258" lon="7.90562">
        <ele>220.7598877</ele>
        <time>2013-05-08T11:38:15Z</time>
      </trkpt>
      <trkpt lat="49.03257" lon="7.90559">
        <ele>221.2406006</ele>
        <time>2013-05-08T11:38:17Z</time>
      </trkpt>
      <trkpt lat="49.03257" lon="7.90541">
        <ele>221.7211914</ele>
        <time>2013-05-08T11:38:25Z</time>
      </trkpt>
      <trkpt lat="49.03253" lon="7.90528">
        <ele>223.163208</ele>
        <time>2013-05-08T11:38:35Z</time>
      </trkpt>
      <trkpt lat="49.03249" lon="7.9051">
        <ele>224.1245117</ele>
        <time>2013-05-08T11:38:47Z</time>
      </trkpt>
      <trkpt lat="49.03247" lon="7.90492">
        <ele>225.0859375</ele>
        <time>2013-05-08T11:38:57Z</time>
      </trkpt>
      <trkpt lat="49.03248" lon="7.90484">
        <ele>225.0859375</ele>
        <time>2013-05-08T11:39:03Z</time>
      </trkpt>
      <trkpt lat="49.03246" lon="7.90472">
        <ele>226.527832</ele>
        <time>2013-05-08T11:39:13Z</time>
      </trkpt>
      <trkpt lat="49.03248" lon="7.90458">
        <ele>227.4891357</ele>
        <time>2013-05-08T11:39:24Z</time>
      </trkpt>
      <trkpt lat="49.03245" lon="7.90449">
        <ele>227.9697266</ele>
        <time>2013-05-08T11:39:29Z</time>
      </trkpt>
      <trkpt lat="49.03243" lon="7.90425">
        <ele>229.4117432</ele>
        <time>2013-05-08T11:39:43Z</time>
      </trkpt>
      <trkpt lat="49.03245" lon="7.90413">
        <ele>229.892334</ele>
        <time>2013-05-08T11:39:52Z</time>
      </trkpt>
      <trkpt lat="49.03246" lon="7.90387">
        <ele>230.8537598</ele>
        <time>2013-05-08T11:40:11Z</time>
      </trkpt>
      <trkpt lat="49.03245" lon="7.90383">
        <ele>231.3343506</ele>
        <time>2013-05-08T11:40:17Z</time>
      </trkpt>
      <trkpt lat="49.03243" lon="7.90375">
        <ele>231.8149414</ele>
        <time>2013-05-08T11:40:22Z</time>
      </trkpt>
      <trkpt lat="49.03239" lon="7.90359">
        <ele>233.2570801</ele>
        <time>2013-05-08T11:40:34Z</time>
      </trkpt>
      <trkpt lat="49.03236" lon="7.90346">
        <ele>235.6602783</ele>
        <time>2013-05-08T11:40:48Z</time>
      </trkpt>
      <trkpt lat="49.03235" lon="7.90344">
        <ele>235.1796875</ele>
        <time>2013-05-08T11:40:52Z</time>
      </trkpt>
      <trkpt lat="49.03233" lon="7.90345">
        <ele>236.1409912</ele>
        <time>2013-05-08T11:41:10Z</time>
      </trkpt>
      <trkpt lat="49.03236" lon="7.90332">
        <ele>237.5828857</ele>
        <time>2013-05-08T11:41:56Z</time>
      </trkpt>
      <trkpt lat="49.03237" lon="7.90324">
        <ele>238.0635986</ele>
        <time>2013-05-08T11:42:02Z</time>
      </trkpt>
      <trkpt lat="49.03237" lon="7.90304">
        <ele>239.9862061</ele>
        <time>2013-05-08T11:42:17Z</time>
      </trkpt>
      <trkpt lat="49.03234" lon="7.90288">
        <ele>240.9476318</ele>
        <time>2013-05-08T11:42:25Z</time>
      </trkpt>
      <trkpt lat="49.0323" lon="7.90271">
        <ele>242.3896484</ele>
        <time>2013-05-08T11:42:38Z</time>
      </trkpt>
      <trkpt lat="49.03229" lon="7.90267">
        <ele>242.8702393</ele>
        <time>2013-05-08T11:42:40Z</time>
      </trkpt>
      <trkpt lat="49.03229" lon="7.90256">
        <ele>243.3508301</ele>
        <time>2013-05-08T11:42:48Z</time>
      </trkpt>
      <trkpt lat="49.03229" lon="7.90246">
        <ele>244.7928467</ele>
        <time>2013-05-08T11:42:58Z</time>
      </trkpt>
      <trkpt lat="49.03229" lon="7.9024">
        <ele>245.7541504</ele>
        <time>2013-05-08T11:43:05Z</time>
      </trkpt>
      <trkpt lat="49.03227" lon="7.90225">
        <ele>246.7154541</ele>
        <time>2013-05-08T11:43:14Z</time>
      </trkpt>
      <trkpt lat="49.03228" lon="7.90213">
        <ele>247.1960449</ele>
        <time>2013-05-08T11:43:20Z</time>
      </trkpt>
      <trkpt lat="49.03228" lon="7.90207">
        <ele>247.6767578</ele>
        <time>2013-05-08T11:43:23Z</time>
      </trkpt>
      <trkpt lat="49.03227" lon="7.90185">
        <ele>249.5994873</ele>
        <time>2013-05-08T11:43:39Z</time>
      </trkpt>
      <trkpt lat="49.03231" lon="7.90172">
        <ele>250.560791</ele>
        <time>2013-05-08T11:43:51Z</time>
      </trkpt>
      <trkpt lat="49.03229" lon="7.90153">
        <ele>252.4833984</ele>
        <time>2013-05-08T11:44:03Z</time>
      </trkpt>
      <trkpt lat="49.03228" lon="7.90128">
        <ele>254.4060059</ele>
        <time>2013-05-08T11:44:20Z</time>
      </trkpt>
      <trkpt lat="49.03226" lon="7.90122">
        <ele>254.4060059</ele>
        <time>2013-05-08T11:44:27Z</time>
      </trkpt>
      <trkpt lat="49.03224" lon="7.90114">
        <ele>256.3287354</ele>
        <time>2013-05-08T11:44:37Z</time>
      </trkpt>
      <trkpt lat="49.03221" lon="7.90098">
        <ele>258.7319336</ele>
        <time>2013-05-08T11:44:51Z</time>
      </trkpt>
      <trkpt lat="49.0322" lon="7.90094">
        <ele>258.7319336</ele>
        <time>2013-05-08T11:44:54Z</time>
      </trkpt>
      <trkpt lat="49.03221" lon="7.90074">
        <ele>259.2126465</ele>
        <time>2013-05-08T11:45:08Z</time>
      </trkpt>
      <trkpt lat="49.03229" lon="7.90068">
        <ele>260.1739502</ele>
        <time>2013-05-08T11:46:07Z</time>
      </trkpt>
      <trkpt lat="49.03235" lon="7.90072">
        <ele>260.654541</ele>
        <time>2013-05-08T11:46:29Z</time>
      </trkpt>
      <trkpt lat="49.03244" lon="7.90096">
        <ele>261.6159668</ele>
        <time>2013-05-08T11:46:47Z</time>
      </trkpt>
      <trkpt lat="49.03247" lon="7.90115">
        <ele>261.6159668</ele>
        <time>2013-05-08T11:47:00Z</time>
      </trkpt>
      <trkpt lat="49.03254" lon="7.90128">
        <ele>262.5771484</ele>
        <time>2013-05-08T11:47:14Z</time>
      </trkpt>
      <trkpt lat="49.03267" lon="7.90158">
        <ele>262.5771484</ele>
        <time>2013-05-08T11:47:31Z</time>
      </trkpt>
      <trkpt lat="49.0327" lon="7.90163">
        <ele>264.4998779</ele>
        <time>2013-05-08T11:47:36Z</time>
      </trkpt>
      <trkpt lat="49.03281" lon="7.90191">
        <ele>265.4613037</ele>
        <time>2013-05-08T11:47:56Z</time>
      </trkpt>
      <trkpt lat="49.03282" lon="7.90195">
        <ele>262.0965576</ele>
        <time>2013-05-08T11:47:59Z</time>
      </trkpt>
      <trkpt lat="49.03282" lon="7.90196">
        <ele>269.3065186</ele>
        <time>2013-05-08T11:48:00Z</time>
      </trkpt>
      <trkpt lat="49.03282" lon="7.90197">
        <ele>267.864502</ele>
        <time>2013-05-08T11:48:01Z</time>
      </trkpt>
      <trkpt lat="49.03287" lon="7.90204">
        <ele>266.4224854</ele>
        <time>2013-05-08T11:48:07Z</time>
      </trkpt>
      <trkpt lat="49.03292" lon="7.90205">
        <ele>265.9418945</ele>
        <time>2013-05-08T11:48:10Z</time>
      </trkpt>
      <trkpt lat="49.03298" lon="7.90218">
        <ele>267.864502</ele>
        <time>2013-05-08T11:48:21Z</time>
      </trkpt>
      <trkpt lat="49.03308" lon="7.9023">
        <ele>268.8258057</ele>
        <time>2013-05-08T11:48:33Z</time>
      </trkpt>
      <trkpt lat="49.03323" lon="7.90245">
        <ele>272.1904297</ele>
        <time>2013-05-08T11:48:53Z</time>
      </trkpt>
      <trkpt lat="49.03335" lon="7.90252">
        <ele>274.1130371</ele>
        <time>2013-05-08T11:49:08Z</time>
      </trkpt>
      <trkpt lat="49.03349" lon="7.90274">
        <ele>276.9970703</ele>
        <time>2013-05-08T11:49:30Z</time>
      </trkpt>
      <trkpt lat="49.03363" lon="7.9028">
        <ele>280.3616943</ele>
        <time>2013-05-08T11:49:47Z</time>
      </trkpt>
      <trkpt lat="49.03381" lon="7.90273">
        <ele>281.322998</ele>
        <time>2013-05-08T11:50:08Z</time>
      </trkpt>
      <trkpt lat="49.03373" lon="7.90259">
        <ele>283.2456055</ele>
        <time>2013-05-08T11:50:30Z</time>
      </trkpt>
      <trkpt lat="49.03366" lon="7.90244">
        <ele>285.1682129</ele>
        <time>2013-05-08T11:50:47Z</time>
      </trkpt>
      <trkpt lat="49.03365" lon="7.90237">
        <ele>287.0908203</ele>
        <time>2013-05-08T11:50:53Z</time>
      </trkpt>
      <trkpt lat="49.03363" lon="7.90211">
        <ele>290.4555664</ele>
        <time>2013-05-08T11:51:13Z</time>
      </trkpt>
      <trkpt lat="49.03365" lon="7.9019">
        <ele>292.8587646</ele>
        <time>2013-05-08T11:51:30Z</time>
      </trkpt>
      <trkpt lat="49.03365" lon="7.90188">
        <ele>292.8587646</ele>
        <time>2013-05-08T11:51:31Z</time>
      </trkpt>
      <trkpt lat="49.03363" lon="7.90168">
        <ele>296.2235107</ele>
        <time>2013-05-08T11:51:52Z</time>
      </trkpt>
      <trkpt lat="49.0336" lon="7.90156">
        <ele>297.1846924</ele>
        <time>2013-05-08T11:52:07Z</time>
      </trkpt>
      <trkpt lat="49.03362" lon="7.90159">
        <ele>297.6654053</ele>
        <time>2013-05-08T11:52:58Z</time>
      </trkpt>
      <trkpt lat="49.03364" lon="7.9016">
        <ele>297.6654053</ele>
        <time>2013-05-08T11:53:33Z</time>
      </trkpt>
      <trkpt lat="49.03359" lon="7.90143">
        <ele>301.0299072</ele>
        <time>2013-05-08T11:56:19Z</time>
      </trkpt>
      <trkpt lat="49.03359" lon="7.90121">
        <ele>303.4332275</ele>
        <time>2013-05-08T11:56:34Z</time>
      </trkpt>
      <trkpt lat="49.03355" lon="7.90105">
        <ele>306.3172607</ele>
        <time>2013-05-08T11:56:49Z</time>
      </trkpt>
      <trkpt lat="49.03355" lon="7.90103">
        <ele>306.3172607</ele>
        <time>2013-05-08T11:56:50Z</time>
      </trkpt>
      <trkpt lat="49.03353" lon="7.90082">
        <ele>308.720459</ele>
        <time>2013-05-08T11:57:06Z</time>
      </trkpt>
      <trkpt lat="49.03354" lon="7.90059">
        <ele>312.0852051</ele>
        <time>2013-05-08T11:57:22Z</time>
      </trkpt>
      <trkpt lat="49.03354" lon="7.90047">
        <ele>313.5272217</ele>
        <time>2013-05-08T11:57:31Z</time>
      </trkpt>
      <trkpt lat="49.03349" lon="7.90032">
        <ele>314.9691162</ele>
        <time>2013-05-08T11:57:45Z</time>
      </trkpt>
      <trkpt lat="49.03349" lon="7.90029">
        <ele>315.4498291</ele>
        <time>2013-05-08T11:57:47Z</time>
      </trkpt>
      <trkpt lat="49.0335" lon="7.90025">
        <ele>314.9691162</ele>
        <time>2013-05-08T11:57:50Z</time>
      </trkpt>
      <trkpt lat="49.03349" lon="7.90006">
        <ele>316.8917236</ele>
        <time>2013-05-08T11:58:02Z</time>
      </trkpt>
      <trkpt lat="49.03348" lon="7.89991">
        <ele>318.3336182</ele>
        <time>2013-05-08T11:58:14Z</time>
      </trkpt>
      <trkpt lat="49.03344" lon="7.89982">
        <ele>319.7756348</ele>
        <time>2013-05-08T11:58:27Z</time>
      </trkpt>
      <trkpt lat="49.03335" lon="7.89953">
        <ele>322.659668</ele>
        <time>2013-05-08T11:58:47Z</time>
      </trkpt>
      <trkpt lat="49.03341" lon="7.89924">
        <ele>325.5435791</ele>
        <time>2013-05-08T11:59:04Z</time>
      </trkpt>
      <trkpt lat="49.03343" lon="7.89909">
        <ele>327.4661865</ele>
        <time>2013-05-08T11:59:18Z</time>
      </trkpt>
      <trkpt lat="49.03343" lon="7.8989">
        <ele>330.8309326</ele>
        <time>2013-05-08T11:59:35Z</time>
      </trkpt>
      <trkpt lat="49.03348" lon="7.89872">
        <ele>332.2728271</ele>
        <time>2013-05-08T11:59:52Z</time>
      </trkpt>
      <trkpt lat="49.0335" lon="7.89856">
        <ele>334.6761475</ele>
        <time>2013-05-08T12:00:10Z</time>
      </trkpt>
      <trkpt lat="49.03354" lon="7.89822">
        <ele>337.0794678</ele>
        <time>2013-05-08T12:00:33Z</time>
      </trkpt>
      <trkpt lat="49.03354" lon="7.89801">
        <ele>339.0020752</ele>
        <time>2013-05-08T12:00:47Z</time>
      </trkpt>
      <trkpt lat="49.03353" lon="7.89787">
        <ele>339.482666</ele>
        <time>2013-05-08T12:00:56Z</time>
      </trkpt>
      <trkpt lat="49.03349" lon="7.89774">
        <ele>340.9246826</ele>
        <time>2013-05-08T12:01:06Z</time>
      </trkpt>
      <trkpt lat="49.03353" lon="7.89763">
        <ele>342.3666992</ele>
        <time>2013-05-08T12:01:14Z</time>
      </trkpt>
      <trkpt lat="49.03351" lon="7.89751">
        <ele>342.84729</ele>
        <time>2013-05-08T12:01:31Z</time>
      </trkpt>
      <trkpt lat="49.03352" lon="7.89731">
        <ele>344.7700195</ele>
        <time>2013-05-08T12:01:45Z</time>
      </trkpt>
      <trkpt lat="49.03351" lon="7.89724">
        <ele>345.7313232</ele>
        <time>2013-05-08T12:01:51Z</time>
      </trkpt>
      <trkpt lat="49.03352" lon="7.897">
        <ele>348.1346436</ele>
        <time>2013-05-08T12:02:07Z</time>
      </trkpt>
      <trkpt lat="49.0335" lon="7.89684">
        <ele>351.4991455</ele>
        <time>2013-05-08T12:02:24Z</time>
      </trkpt>
      <trkpt lat="49.03351" lon="7.89666">
        <ele>353.421875</ele>
        <time>2013-05-08T12:02:39Z</time>
      </trkpt>
      <trkpt lat="49.03353" lon="7.89647">
        <ele>355.8251953</ele>
        <time>2013-05-08T12:02:53Z</time>
      </trkpt>
      <trkpt lat="49.03355" lon="7.89628">
        <ele>358.2283936</ele>
        <time>2013-05-08T12:03:09Z</time>
      </trkpt>
      <trkpt lat="49.03355" lon="7.89613">
        <ele>359.6704102</ele>
        <time>2013-05-08T12:03:22Z</time>
      </trkpt>
      <trkpt lat="49.03356" lon="7.89594">
        <ele>361.1124268</ele>
        <time>2013-05-08T12:03:36Z</time>
      </trkpt>
      <trkpt lat="49.03353" lon="7.89582">
        <ele>361.5931396</ele>
        <time>2013-05-08T12:03:46Z</time>
      </trkpt>
      <trkpt lat="49.03351" lon="7.89567">
        <ele>363.5157471</ele>
        <time>2013-05-08T12:04:01Z</time>
      </trkpt>
      <trkpt lat="49.03353" lon="7.8955">
        <ele>364.9576416</ele>
        <time>2013-05-08T12:04:14Z</time>
      </trkpt>
      <trkpt lat="49.03349" lon="7.89528">
        <ele>366.880249</ele>
        <time>2013-05-08T12:04:31Z</time>
      </trkpt>
      <trkpt lat="49.03349" lon="7.89512">
        <ele>368.3222656</ele>
        <time>2013-05-08T12:04:44Z</time>
      </trkpt>
      <trkpt lat="49.0335" lon="7.89495">
        <ele>370.244873</ele>
        <time>2013-05-08T12:04:57Z</time>
      </trkpt>
      <trkpt lat="49.0335" lon="7.89494">
        <ele>370.244873</ele>
        <time>2013-05-08T12:04:58Z</time>
      </trkpt>
      <trkpt lat="49.03347" lon="7.89469">
        <ele>372.6481934</ele>
        <time>2013-05-08T12:05:18Z</time>
      </trkpt>
      <trkpt lat="49.03334" lon="7.89453">
        <ele>372.6481934</ele>
        <time>2013-05-08T12:05:42Z</time>
      </trkpt>
      <trkpt lat="49.0333" lon="7.89453">
        <ele>372.6481934</ele>
        <time>2013-05-08T12:05:45Z</time>
      </trkpt>
      <trkpt lat="49.03333" lon="7.89447">
        <ele>374.0900879</ele>
        <time>2013-05-08T12:05:57Z</time>
      </trkpt>
      <trkpt lat="49.03336" lon="7.89427">
        <ele>375.5321045</ele>
        <time>2013-05-08T12:06:12Z</time>
      </trkpt>
      <trkpt lat="49.03335" lon="7.89426">
        <ele>376.0128174</ele>
        <time>2013-05-08T12:06:26Z</time>
      </trkpt>
      <trkpt lat="49.03333" lon="7.89421">
        <ele>376.4935303</ele>
        <time>2013-05-08T12:06:44Z</time>
      </trkpt>
      <trkpt lat="49.03331" lon="7.89411">
        <ele>379.3774414</ele>
        <time>2013-05-08T12:06:58Z</time>
      </trkpt>
      <trkpt lat="49.03329" lon="7.89405">
        <ele>381.3000488</ele>
        <time>2013-05-08T12:07:12Z</time>
      </trkpt>
      <trkpt lat="49.03322" lon="7.8939">
        <ele>384.6647949</ele>
        <time>2013-05-08T12:07:33Z</time>
      </trkpt>
      <trkpt lat="49.03321" lon="7.89361">
        <ele>387.548584</ele>
        <time>2013-05-08T12:07:57Z</time>
      </trkpt>
      <trkpt lat="49.0331" lon="7.89325">
        <ele>390.913208</ele>
        <time>2013-05-08T12:08:27Z</time>
      </trkpt>
      <trkpt lat="49.03295" lon="7.89287">
        <ele>394.2779541</ele>
        <time>2013-05-08T12:08:59Z</time>
      </trkpt>
      <trkpt lat="49.03289" lon="7.89275">
        <ele>395.7198486</ele>
        <time>2013-05-08T12:09:35Z</time>
      </trkpt>
      <trkpt lat="49.03292" lon="7.89258">
        <ele>397.6424561</ele>
        <time>2013-05-08T12:09:50Z</time>
      </trkpt>
      <trkpt lat="49.03291" lon="7.89241">
        <ele>399.5650635</ele>
        <time>2013-05-08T12:10:04Z</time>
      </trkpt>
      <trkpt lat="49.03285" lon="7.8922">
        <ele>401.0070801</ele>
        <time>2013-05-08T12:10:18Z</time>
      </trkpt>
      <trkpt lat="49.03286" lon="7.89212">
        <ele>403.4104004</ele>
        <time>2013-05-08T12:10:44Z</time>
      </trkpt>
      <trkpt lat="49.03288" lon="7.89197">
        <ele>406.7749023</ele>
        <time>2013-05-08T12:10:59Z</time>
      </trkpt>
      <trkpt lat="49.03271" lon="7.89179">
        <ele>410.1396484</ele>
        <time>2013-05-08T12:11:21Z</time>
      </trkpt>
      <trkpt lat="49.03269" lon="7.89168">
        <ele>411.581665</ele>
        <time>2013-05-08T12:11:36Z</time>
      </trkpt>
      <trkpt lat="49.03263" lon="7.89152">
        <ele>413.5042725</ele>
        <time>2013-05-08T12:11:52Z</time>
      </trkpt>
      <trkpt lat="49.0326" lon="7.89153">
        <ele>413.9848633</ele>
        <time>2013-05-08T12:13:23Z</time>
      </trkpt>
      <trkpt lat="49.03256" lon="7.89159">
        <ele>414.4654541</ele>
        <time>2013-05-08T12:13:57Z</time>
      </trkpt>
      <trkpt lat="49.03237" lon="7.8914">
        <ele>413.0235596</ele>
        <time>2013-05-08T12:14:35Z</time>
      </trkpt>
      <trkpt lat="49.03218" lon="7.89132">
        <ele>413.9848633</ele>
        <time>2013-05-08T12:14:57Z</time>
      </trkpt>
      <trkpt lat="49.03218" lon="7.89128">
        <ele>414.946167</ele>
        <time>2013-05-08T12:15:00Z</time>
      </trkpt>
      <trkpt lat="49.03218" lon="7.89102">
        <ele>417.8302002</ele>
        <time>2013-05-08T12:15:20Z</time>
      </trkpt>
      <trkpt lat="49.03199" lon="7.89082">
        <ele>419.7528076</ele>
        <time>2013-05-08T12:15:47Z</time>
      </trkpt>
      <trkpt lat="49.03185" lon="7.89075">
        <ele>421.1948242</ele>
        <time>2013-05-08T12:16:08Z</time>
      </trkpt>
      <trkpt lat="49.03182" lon="7.89066">
        <ele>424.0787354</ele>
        <time>2013-05-08T12:16:38Z</time>
      </trkpt>
      <trkpt lat="49.03172" lon="7.89052">
        <ele>427.4433594</ele>
        <time>2013-05-08T12:17:13Z</time>
      </trkpt>
      <trkpt lat="49.03154" lon="7.89042">
        <ele>428.885376</ele>
        <time>2013-05-08T12:17:32Z</time>
      </trkpt>
      <trkpt lat="49.03124" lon="7.89036">
        <ele>430.3272705</ele>
        <time>2013-05-08T12:17:53Z</time>
      </trkpt>
      <trkpt lat="49.03106" lon="7.89046">
        <ele>431.2885742</ele>
        <time>2013-05-08T12:18:09Z</time>
      </trkpt>
      <trkpt lat="49.03088" lon="7.89058">
        <ele>432.7307129</ele>
        <time>2013-05-08T12:18:28Z</time>
      </trkpt>
      <trkpt lat="49.0307" lon="7.8907">
        <ele>434.1726074</ele>
        <time>2013-05-08T12:18:46Z</time>
      </trkpt>
      <trkpt lat="49.03035" lon="7.89083">
        <ele>436.0952148</ele>
        <time>2013-05-08T12:19:09Z</time>
      </trkpt>
      <trkpt lat="49.0303" lon="7.89097">
        <ele>438.0178223</ele>
        <time>2013-05-08T12:19:32Z</time>
      </trkpt>
      <trkpt lat="49.03012" lon="7.89101">
        <ele>438.4985352</ele>
        <time>2013-05-08T12:19:41Z</time>
      </trkpt>
      <trkpt lat="49.02994" lon="7.89131">
        <ele>440.4212646</ele>
        <time>2013-05-08T12:20:01Z</time>
      </trkpt>
      <trkpt lat="49.02986" lon="7.89128">
        <ele>442.3438721</ele>
        <time>2013-05-08T12:20:22Z</time>
      </trkpt>
      <trkpt lat="49.02967" lon="7.89126">
        <ele>443.7857666</ele>
        <time>2013-05-08T12:20:42Z</time>
      </trkpt>
      <trkpt lat="49.02947" lon="7.89106">
        <ele>445.708374</ele>
        <time>2013-05-08T12:21:03Z</time>
      </trkpt>
      <trkpt lat="49.02937" lon="7.89084">
        <ele>446.6696777</ele>
        <time>2013-05-08T12:21:21Z</time>
      </trkpt>
      <trkpt lat="49.0292" lon="7.89072">
        <ele>448.5924072</ele>
        <time>2013-05-08T12:21:40Z</time>
      </trkpt>
      <trkpt lat="49.02916" lon="7.8905">
        <ele>450.5150146</ele>
        <time>2013-05-08T12:21:56Z</time>
      </trkpt>
      <trkpt lat="49.02909" lon="7.89022">
        <ele>451.9570313</ele>
        <time>2013-05-08T12:22:18Z</time>
      </trkpt>
      <trkpt lat="49.02896" lon="7.88993">
        <ele>453.3989258</ele>
        <time>2013-05-08T12:22:37Z</time>
      </trkpt>
      <trkpt lat="49.02886" lon="7.88967">
        <ele>453.3989258</ele>
        <time>2013-05-08T12:22:57Z</time>
      </trkpt>
      <trkpt lat="49.02869" lon="7.88941">
        <ele>453.8796387</ele>
        <time>2013-05-08T12:23:21Z</time>
      </trkpt>
      <trkpt lat="49.02854" lon="7.88922">
        <ele>454.3602295</ele>
        <time>2013-05-08T12:23:43Z</time>
      </trkpt>
      <trkpt lat="49.02853" lon="7.8888">
        <ele>453.8796387</ele>
        <time>2013-05-08T12:24:08Z</time>
      </trkpt>
      <trkpt lat="49.02794" lon="7.88856">
        <ele>455.3215332</ele>
        <time>2013-05-08T12:24:41Z</time>
      </trkpt>
      <trkpt lat="49.02764" lon="7.88857">
        <ele>455.8022461</ele>
        <time>2013-05-08T12:24:58Z</time>
      </trkpt>
      <trkpt lat="49.02741" lon="7.88859">
        <ele>456.282959</ele>
        <time>2013-05-08T12:25:20Z</time>
      </trkpt>
      <trkpt lat="49.0272" lon="7.88854">
        <ele>458.2055664</ele>
        <time>2013-05-08T12:25:41Z</time>
      </trkpt>
      <trkpt lat="49.02706" lon="7.88863">
        <ele>458.2055664</ele>
        <time>2013-05-08T12:26:01Z</time>
      </trkpt>
      <trkpt lat="49.02683" lon="7.88862">
        <ele>456.282959</ele>
        <time>2013-05-08T12:26:20Z</time>
      </trkpt>
      <trkpt lat="49.02654" lon="7.88844">
        <ele>455.3215332</ele>
        <time>2013-05-08T12:26:41Z</time>
      </trkpt>
      <trkpt lat="49.02634" lon="7.88833">
        <ele>455.8022461</ele>
        <time>2013-05-08T12:27:04Z</time>
      </trkpt>
      <trkpt lat="49.02624" lon="7.88818">
        <ele>455.3215332</ele>
        <time>2013-05-08T12:27:27Z</time>
      </trkpt>
      <trkpt lat="49.02615" lon="7.88806">
        <ele>455.3215332</ele>
        <time>2013-05-08T12:27:38Z</time>
      </trkpt>
      <trkpt lat="49.02615" lon="7.88804">
        <ele>455.3215332</ele>
        <time>2013-05-08T12:27:39Z</time>
      </trkpt>
      <trkpt lat="49.02615" lon="7.88801">
        <ele>454.8408203</ele>
        <time>2013-05-08T12:27:42Z</time>
      </trkpt>
      <trkpt lat="49.0261" lon="7.88794">
        <ele>455.3215332</ele>
        <time>2013-05-08T12:27:48Z</time>
      </trkpt>
      <trkpt lat="49.02603" lon="7.88788">
        <ele>455.3215332</ele>
        <time>2013-05-08T12:28:02Z</time>
      </trkpt>
      <trkpt lat="49.02601" lon="7.88787">
        <ele>455.3215332</ele>
        <time>2013-05-08T12:28:34Z</time>
      </trkpt>
      <trkpt lat="49.02601" lon="7.88786">
        <ele>455.3215332</ele>
        <time>2013-05-08T12:28:44Z</time>
      </trkpt>
      <trkpt lat="49.02597" lon="7.88776">
        <ele>455.3215332</ele>
        <time>2013-05-08T12:28:53Z</time>
      </trkpt>
      <trkpt lat="49.02594" lon="7.88773">
        <ele>454.8408203</ele>
        <time>2013-05-08T12:28:57Z</time>
      </trkpt>
      <trkpt lat="49.02584" lon="7.88758">
        <ele>454.8408203</ele>
        <time>2013-05-08T12:29:12Z</time>
      </trkpt>
      <trkpt lat="49.02584" lon="7.88755">
        <ele>454.8408203</ele>
        <time>2013-05-08T12:29:14Z</time>
      </trkpt>
      <trkpt lat="49.02583" lon="7.88751">
        <ele>454.3602295</ele>
        <time>2013-05-08T12:29:16Z</time>
      </trkpt>
      <trkpt lat="49.02572" lon="7.88733">
        <ele>453.8796387</ele>
        <time>2013-05-08T12:29:31Z</time>
      </trkpt>
      <trkpt lat="49.02566" lon="7.88723">
        <ele>452.9182129</ele>
        <time>2013-05-08T12:29:43Z</time>
      </trkpt>
      <trkpt lat="49.02566" lon="7.8872">
        <ele>452.9182129</ele>
        <time>2013-05-08T12:29:45Z</time>
      </trkpt>
      <trkpt lat="49.02556" lon="7.88694">
        <ele>452.4376221</ele>
        <time>2013-05-08T12:30:00Z</time>
      </trkpt>
      <trkpt lat="49.02548" lon="7.88673">
        <ele>451.9570313</ele>
        <time>2013-05-08T12:30:14Z</time>
      </trkpt>
      <trkpt lat="49.02537" lon="7.88657">
        <ele>450.9956055</ele>
        <time>2013-05-08T12:30:30Z</time>
      </trkpt>
      <trkpt lat="49.02533" lon="7.88649">
        <ele>450.5150146</ele>
        <time>2013-05-08T12:30:37Z</time>
      </trkpt>
      <trkpt lat="49.0252" lon="7.88635">
        <ele>450.0344238</ele>
        <time>2013-05-08T12:30:47Z</time>
      </trkpt>
      <trkpt lat="49.02516" lon="7.88623">
        <ele>449.5537109</ele>
        <time>2013-05-08T12:30:56Z</time>
      </trkpt>
      <trkpt lat="49.02513" lon="7.88617">
        <ele>449.072998</ele>
        <time>2013-05-08T12:31:10Z</time>
      </trkpt>
      <trkpt lat="49.02508" lon="7.8861">
        <ele>448.1118164</ele>
        <time>2013-05-08T12:31:17Z</time>
      </trkpt>
      <trkpt lat="49.02502" lon="7.88596">
        <ele>446.6696777</ele>
        <time>2013-05-08T12:31:29Z</time>
      </trkpt>
      <trkpt lat="49.025" lon="7.88593">
        <ele>446.6696777</ele>
        <time>2013-05-08T12:31:32Z</time>
      </trkpt>
      <trkpt lat="49.02499" lon="7.88571">
        <ele>443.7857666</ele>
        <time>2013-05-08T12:31:54Z</time>
      </trkpt>
      <trkpt lat="49.02508" lon="7.88539">
        <ele>442.3438721</ele>
        <time>2013-05-08T12:32:28Z</time>
      </trkpt>
      <trkpt lat="49.02507" lon="7.88531">
        <ele>440.4212646</ele>
        <time>2013-05-08T12:32:59Z</time>
      </trkpt>
      <trkpt lat="49.02498" lon="7.88513">
        <ele>437.0565186</ele>
        <time>2013-05-08T12:33:21Z</time>
      </trkpt>
      <trkpt lat="49.02513" lon="7.88491">
        <ele>433.6918945</ele>
        <time>2013-05-08T12:33:49Z</time>
      </trkpt>
      <trkpt lat="49.02495" lon="7.88469">
        <ele>433.2113037</ele>
        <time>2013-05-08T12:34:27Z</time>
      </trkpt>
      <trkpt lat="49.02482" lon="7.88461">
        <ele>431.2885742</ele>
        <time>2013-05-08T12:34:44Z</time>
      </trkpt>
      <trkpt lat="49.0246" lon="7.88423">
        <ele>427.9239502</ele>
        <time>2013-05-08T12:35:06Z</time>
      </trkpt>
      <trkpt lat="49.02446" lon="7.88392">
        <ele>424.5594482</ele>
        <time>2013-05-08T12:35:31Z</time>
      </trkpt>
      <trkpt lat="49.02437" lon="7.88355">
        <ele>422.6367188</ele>
        <time>2013-05-08T12:35:57Z</time>
      </trkpt>
      <trkpt lat="49.02431" lon="7.88327">
        <ele>420.7141113</ele>
        <time>2013-05-08T12:36:19Z</time>
      </trkpt>
      <trkpt lat="49.02423" lon="7.88295">
        <ele>419.2722168</ele>
        <time>2013-05-08T12:36:39Z</time>
      </trkpt>
      <trkpt lat="49.02415" lon="7.88256">
        <ele>417.3496094</ele>
        <time>2013-05-08T12:37:04Z</time>
      </trkpt>
      <trkpt lat="49.02406" lon="7.88225">
        <ele>415.9074707</ele>
        <time>2013-05-08T12:37:25Z</time>
      </trkpt>
      <trkpt lat="49.02398" lon="7.88188">
        <ele>414.4654541</ele>
        <time>2013-05-08T12:37:47Z</time>
      </trkpt>
      <trkpt lat="49.02391" lon="7.88172">
        <ele>414.4654541</ele>
        <time>2013-05-08T12:37:59Z</time>
      </trkpt>
      <trkpt lat="49.02391" lon="7.88163">
        <ele>413.9848633</ele>
        <time>2013-05-08T12:38:04Z</time>
      </trkpt>
      <trkpt lat="49.02391" lon="7.88155">
        <ele>413.5042725</ele>
        <time>2013-05-08T12:38:09Z</time>
      </trkpt>
      <trkpt lat="49.02391" lon="7.88149">
        <ele>413.0235596</ele>
        <time>2013-05-08T12:38:13Z</time>
      </trkpt>
      <trkpt lat="49.02386" lon="7.88132">
        <ele>412.5428467</ele>
        <time>2013-05-08T12:38:26Z</time>
      </trkpt>
      <trkpt lat="49.02374" lon="7.88114">
        <ele>411.1009521</ele>
        <time>2013-05-08T12:38:40Z</time>
      </trkpt>
      <trkpt lat="49.02371" lon="7.88101">
        <ele>410.1396484</ele>
        <time>2013-05-08T12:38:51Z</time>
      </trkpt>
      <trkpt lat="49.02369" lon="7.88096">
        <ele>409.6590576</ele>
        <time>2013-05-08T12:38:55Z</time>
      </trkpt>
      <trkpt lat="49.02367" lon="7.88089">
        <ele>409.6590576</ele>
        <time>2013-05-08T12:38:59Z</time>
      </trkpt>
      <trkpt lat="49.02364" lon="7.88065">
        <ele>407.7363281</ele>
        <time>2013-05-08T12:39:14Z</time>
      </trkpt>
      <trkpt lat="49.02364" lon="7.88041">
        <ele>406.2943115</ele>
        <time>2013-05-08T12:39:29Z</time>
      </trkpt>
      <trkpt lat="49.02359" lon="7.88006">
        <ele>405.8137207</ele>
        <time>2013-05-08T12:39:51Z</time>
      </trkpt>
      <trkpt lat="49.02362" lon="7.87998">
        <ele>405.8137207</ele>
        <time>2013-05-08T12:39:56Z</time>
      </trkpt>
      <trkpt lat="49.02362" lon="7.87992">
        <ele>405.8137207</ele>
        <time>2013-05-08T12:39:59Z</time>
      </trkpt>
      <trkpt lat="49.02359" lon="7.8797">
        <ele>405.8137207</ele>
        <time>2013-05-08T12:40:11Z</time>
      </trkpt>
      <trkpt lat="49.02357" lon="7.87965">
        <ele>405.8137207</ele>
        <time>2013-05-08T12:40:15Z</time>
      </trkpt>
      <trkpt lat="49.02357" lon="7.87955">
        <ele>405.8137207</ele>
        <time>2013-05-08T12:40:21Z</time>
      </trkpt>
      <trkpt lat="49.02354" lon="7.87945">
        <ele>405.3330078</ele>
        <time>2013-05-08T12:40:27Z</time>
      </trkpt>
      <trkpt lat="49.02356" lon="7.87932">
        <ele>405.8137207</ele>
        <time>2013-05-08T12:40:34Z</time>
      </trkpt>
      <trkpt lat="49.02356" lon="7.87928">
        <ele>405.8137207</ele>
        <time>2013-05-08T12:40:37Z</time>
      </trkpt>
      <trkpt lat="49.02358" lon="7.87921">
        <ele>405.8137207</ele>
        <time>2013-05-08T12:40:42Z</time>
      </trkpt>
      <trkpt lat="49.02358" lon="7.87916">
        <ele>405.8137207</ele>
        <time>2013-05-08T12:40:45Z</time>
      </trkpt>
      <trkpt lat="49.02357" lon="7.87909">
        <ele>405.8137207</ele>
        <time>2013-05-08T12:40:49Z</time>
      </trkpt>
      <trkpt lat="49.02362" lon="7.87901">
        <ele>405.3330078</ele>
        <time>2013-05-08T12:40:53Z</time>
      </trkpt>
      <trkpt lat="49.0236" lon="7.87892">
        <ele>405.8137207</ele>
        <time>2013-05-08T12:40:57Z</time>
      </trkpt>
      <trkpt lat="49.02356" lon="7.87862">
        <ele>403.8911133</ele>
        <time>2013-05-08T12:41:14Z</time>
      </trkpt>
      <trkpt lat="49.02362" lon="7.87833">
        <ele>402.9296875</ele>
        <time>2013-05-08T12:41:36Z</time>
      </trkpt>
      <trkpt lat="49.02355" lon="7.878">
        <ele>400.5264893</ele>
        <time>2013-05-08T12:41:55Z</time>
      </trkpt>
      <trkpt lat="49.02352" lon="7.87766">
        <ele>397.1617432</ele>
        <time>2013-05-08T12:42:20Z</time>
      </trkpt>
      <trkpt lat="49.02346" lon="7.87739">
        <ele>393.7972412</ele>
        <time>2013-05-08T12:42:42Z</time>
      </trkpt>
      <trkpt lat="49.02338" lon="7.8771">
        <ele>392.3553467</ele>
        <time>2013-05-08T12:43:05Z</time>
      </trkpt>
      <trkpt lat="49.02334" lon="7.8769">
        <ele>388.5100098</ele>
        <time>2013-05-08T13:13:24Z</time>
      </trkpt>
      <trkpt lat="49.02331" lon="7.87665">
        <ele>385.6259766</ele>
        <time>2013-05-08T13:13:45Z</time>
      </trkpt>
      <trkpt lat="49.02308" lon="7.87627">
        <ele>382.7420654</ele>
        <time>2013-05-08T13:14:08Z</time>
      </trkpt>
      <trkpt lat="49.02296" lon="7.87612">
        <ele>379.8580322</ele>
        <time>2013-05-08T13:14:25Z</time>
      </trkpt>
      <trkpt lat="49.02275" lon="7.8759">
        <ele>376.9742432</ele>
        <time>2013-05-08T13:14:45Z</time>
      </trkpt>
      <trkpt lat="49.02269" lon="7.8758">
        <ele>376.9742432</ele>
        <time>2013-05-08T13:15:02Z</time>
      </trkpt>
      <trkpt lat="49.02267" lon="7.8757">
        <ele>377.454834</ele>
        <time>2013-05-08T13:15:08Z</time>
      </trkpt>
      <trkpt lat="49.02248" lon="7.87528">
        <ele>377.454834</ele>
        <time>2013-05-08T13:15:31Z</time>
      </trkpt>
      <trkpt lat="49.02248" lon="7.87517">
        <ele>376.9742432</ele>
        <time>2013-05-08T13:15:38Z</time>
      </trkpt>
      <trkpt lat="49.02246" lon="7.87495">
        <ele>376.9742432</ele>
        <time>2013-05-08T13:15:52Z</time>
      </trkpt>
      <trkpt lat="49.02246" lon="7.87491">
        <ele>376.9742432</ele>
        <time>2013-05-08T13:15:55Z</time>
      </trkpt>
      <trkpt lat="49.02242" lon="7.87463">
        <ele>376.4935303</ele>
        <time>2013-05-08T13:16:12Z</time>
      </trkpt>
      <trkpt lat="49.02238" lon="7.87433">
        <ele>376.0128174</ele>
        <time>2013-05-08T13:16:34Z</time>
      </trkpt>
      <trkpt lat="49.02235" lon="7.87401">
        <ele>376.0128174</ele>
        <time>2013-05-08T13:16:50Z</time>
      </trkpt>
      <trkpt lat="49.02234" lon="7.87394">
        <ele>376.0128174</ele>
        <time>2013-05-08T13:16:53Z</time>
      </trkpt>
      <trkpt lat="49.02231" lon="7.87383">
        <ele>375.5321045</ele>
        <time>2013-05-08T13:16:59Z</time>
      </trkpt>
      <trkpt lat="49.02233" lon="7.87377">
        <ele>376.0128174</ele>
        <time>2013-05-08T13:17:02Z</time>
      </trkpt>
      <trkpt lat="49.02234" lon="7.87346">
        <ele>376.0128174</ele>
        <time>2013-05-08T13:17:21Z</time>
      </trkpt>
      <trkpt lat="49.02238" lon="7.87337">
        <ele>376.0128174</ele>
        <time>2013-05-08T13:17:27Z</time>
      </trkpt>
      <trkpt lat="49.02238" lon="7.87332">
        <ele>376.0128174</ele>
        <time>2013-05-08T13:17:30Z</time>
      </trkpt>
      <trkpt lat="49.02238" lon="7.87319">
        <ele>376.0128174</ele>
        <time>2013-05-08T13:17:38Z</time>
      </trkpt>
      <trkpt lat="49.02253" lon="7.8729">
        <ele>375.5321045</ele>
        <time>2013-05-08T13:17:57Z</time>
      </trkpt>
      <trkpt lat="49.02257" lon="7.87284">
        <ele>374.5708008</ele>
        <time>2013-05-08T13:18:02Z</time>
      </trkpt>
      <trkpt lat="49.02265" lon="7.87263">
        <ele>374.0900879</ele>
        <time>2013-05-08T13:18:15Z</time>
      </trkpt>
      <trkpt lat="49.02265" lon="7.87255">
        <ele>374.0900879</ele>
        <time>2013-05-08T13:18:18Z</time>
      </trkpt>
      <trkpt lat="49.02268" lon="7.87245">
        <ele>373.6094971</ele>
        <time>2013-05-08T13:18:26Z</time>
      </trkpt>
      <trkpt lat="49.02273" lon="7.8724">
        <ele>373.6094971</ele>
        <time>2013-05-08T13:18:30Z</time>
      </trkpt>
      <trkpt lat="49.02278" lon="7.87232">
        <ele>373.1289063</ele>
        <time>2013-05-08T13:18:35Z</time>
      </trkpt>
      <trkpt lat="49.02284" lon="7.87213">
        <ele>372.6481934</ele>
        <time>2013-05-08T13:18:46Z</time>
      </trkpt>
      <trkpt lat="49.02293" lon="7.8718">
        <ele>371.6868896</ele>
        <time>2013-05-08T13:19:10Z</time>
      </trkpt>
      <trkpt lat="49.02305" lon="7.87151">
        <ele>371.2062988</ele>
        <time>2013-05-08T13:19:28Z</time>
      </trkpt>
      <trkpt lat="49.02305" lon="7.87136">
        <ele>371.2062988</ele>
        <time>2013-05-08T13:19:34Z</time>
      </trkpt>
      <trkpt lat="49.02305" lon="7.87129">
        <ele>370.7255859</ele>
        <time>2013-05-08T13:19:38Z</time>
      </trkpt>
      <trkpt lat="49.02303" lon="7.87097">
        <ele>370.244873</ele>
        <time>2013-05-08T13:19:57Z</time>
      </trkpt>
      <trkpt lat="49.02306" lon="7.87064">
        <ele>369.2836914</ele>
        <time>2013-05-08T13:20:19Z</time>
      </trkpt>
      <trkpt lat="49.02301" lon="7.8702">
        <ele>368.8029785</ele>
        <time>2013-05-08T13:20:38Z</time>
      </trkpt>
      <trkpt lat="49.02301" lon="7.87018">
        <ele>368.8029785</ele>
        <time>2013-05-08T13:20:39Z</time>
      </trkpt>
      <trkpt lat="49.02299" lon="7.86992">
        <ele>368.3222656</ele>
        <time>2013-05-08T13:20:56Z</time>
      </trkpt>
      <trkpt lat="49.02286" lon="7.86955">
        <ele>368.3222656</ele>
        <time>2013-05-08T13:21:18Z</time>
      </trkpt>
      <trkpt lat="49.02278" lon="7.86938">
        <ele>367.8415527</ele>
        <time>2013-05-08T13:21:29Z</time>
      </trkpt>
      <trkpt lat="49.02251" lon="7.86905">
        <ele>366.880249</ele>
        <time>2013-05-08T13:21:49Z</time>
      </trkpt>
      <trkpt lat="49.02246" lon="7.869">
        <ele>366.3995361</ele>
        <time>2013-05-08T13:21:53Z</time>
      </trkpt>
      <trkpt lat="49.02239" lon="7.86893">
        <ele>366.3995361</ele>
        <time>2013-05-08T13:21:59Z</time>
      </trkpt>
      <trkpt lat="49.02229" lon="7.86886">
        <ele>365.9189453</ele>
        <time>2013-05-08T13:22:10Z</time>
      </trkpt>
      <trkpt lat="49.02207" lon="7.86871">
        <ele>364.9576416</ele>
        <time>2013-05-08T13:22:24Z</time>
      </trkpt>
      <trkpt lat="49.02199" lon="7.86866">
        <ele>364.9576416</ele>
        <time>2013-05-08T13:22:31Z</time>
      </trkpt>
      <trkpt lat="49.02197" lon="7.86863">
        <ele>364.9576416</ele>
        <time>2013-05-08T13:22:34Z</time>
      </trkpt>
      <trkpt lat="49.02185" lon="7.86851">
        <ele>364.4769287</ele>
        <time>2013-05-08T13:22:48Z</time>
      </trkpt>
      <trkpt lat="49.02177" lon="7.86847">
        <ele>363.9963379</ele>
        <time>2013-05-08T13:22:56Z</time>
      </trkpt>
      <trkpt lat="49.02176" lon="7.86845">
        <ele>363.9963379</ele>
        <time>2013-05-08T13:22:58Z</time>
      </trkpt>
      <trkpt lat="49.02175" lon="7.86845">
        <ele>363.9963379</ele>
        <time>2013-05-08T13:23:00Z</time>
      </trkpt>
      <trkpt lat="49.02173" lon="7.86844">
        <ele>363.9963379</ele>
        <time>2013-05-08T13:23:02Z</time>
      </trkpt>
      <trkpt lat="49.02145" lon="7.86823">
        <ele>362.0737305</ele>
        <time>2013-05-08T13:23:21Z</time>
      </trkpt>
      <trkpt lat="49.02126" lon="7.86815">
        <ele>360.151123</ele>
        <time>2013-05-08T13:23:37Z</time>
      </trkpt>
      <trkpt lat="49.02115" lon="7.8681">
        <ele>359.1896973</ele>
        <time>2013-05-08T13:23:47Z</time>
      </trkpt>
      <trkpt lat="49.02104" lon="7.86801">
        <ele>357.2670898</ele>
        <time>2013-05-08T13:23:59Z</time>
      </trkpt>
      <trkpt lat="49.02093" lon="7.86787">
        <ele>356.3057861</ele>
        <time>2013-05-08T13:24:14Z</time>
      </trkpt>
      <trkpt lat="49.02085" lon="7.86776">
        <ele>355.3444824</ele>
        <time>2013-05-08T13:24:25Z</time>
      </trkpt>
      <trkpt lat="49.02083" lon="7.86759">
        <ele>355.8251953</ele>
        <time>2013-05-08T13:24:33Z</time>
      </trkpt>
      <trkpt lat="49.02079" lon="7.86736">
        <ele>355.8251953</ele>
        <time>2013-05-08T13:24:44Z</time>
      </trkpt>
      <trkpt lat="49.02078" lon="7.86729">
        <ele>355.3444824</ele>
        <time>2013-05-08T13:24:48Z</time>
      </trkpt>
      <trkpt lat="49.02079" lon="7.86723">
        <ele>356.3057861</ele>
        <time>2013-05-08T13:24:52Z</time>
      </trkpt>
      <trkpt lat="49.02081" lon="7.86719">
        <ele>355.8251953</ele>
        <time>2013-05-08T13:24:55Z</time>
      </trkpt>
      <trkpt lat="49.02083" lon="7.86711">
        <ele>356.786377</ele>
        <time>2013-05-08T13:25:00Z</time>
      </trkpt>
      <trkpt lat="49.02085" lon="7.86703">
        <ele>356.786377</ele>
        <time>2013-05-08T13:25:04Z</time>
      </trkpt>
      <trkpt lat="49.02085" lon="7.86699">
        <ele>356.786377</ele>
        <time>2013-05-08T13:25:06Z</time>
      </trkpt>
      <trkpt lat="49.02085" lon="7.86692">
        <ele>356.786377</ele>
        <time>2013-05-08T13:25:10Z</time>
      </trkpt>
      <trkpt lat="49.02087" lon="7.86685">
        <ele>357.2670898</ele>
        <time>2013-05-08T13:25:14Z</time>
      </trkpt>
      <trkpt lat="49.02091" lon="7.86677">
        <ele>357.7478027</ele>
        <time>2013-05-08T13:25:19Z</time>
      </trkpt>
      <trkpt lat="49.02101" lon="7.86654">
        <ele>357.7478027</ele>
        <time>2013-05-08T13:25:35Z</time>
      </trkpt>
      <trkpt lat="49.02109" lon="7.86644">
        <ele>357.2670898</ele>
        <time>2013-05-08T13:25:41Z</time>
      </trkpt>
      <trkpt lat="49.02119" lon="7.86617">
        <ele>357.7478027</ele>
        <time>2013-05-08T13:25:59Z</time>
      </trkpt>
      <trkpt lat="49.02123" lon="7.86603">
        <ele>357.2670898</ele>
        <time>2013-05-08T13:26:07Z</time>
      </trkpt>
      <trkpt lat="49.02134" lon="7.86571">
        <ele>357.7478027</ele>
        <time>2013-05-08T13:26:28Z</time>
      </trkpt>
      <trkpt lat="49.02138" lon="7.86555">
        <ele>357.7478027</ele>
        <time>2013-05-08T13:26:38Z</time>
      </trkpt>
      <trkpt lat="49.02156" lon="7.86519">
        <ele>358.7089844</ele>
        <time>2013-05-08T13:27:03Z</time>
      </trkpt>
      <trkpt lat="49.02165" lon="7.86502">
        <ele>359.1896973</ele>
        <time>2013-05-08T13:27:17Z</time>
      </trkpt>
      <trkpt lat="49.02172" lon="7.86473">
        <ele>360.151123</ele>
        <time>2013-05-08T13:27:37Z</time>
      </trkpt>
      <trkpt lat="49.0217" lon="7.86444">
        <ele>361.1124268</ele>
        <time>2013-05-08T13:27:56Z</time>
      </trkpt>
      <trkpt lat="49.02171" lon="7.86408">
        <ele>361.5931396</ele>
        <time>2013-05-08T13:28:17Z</time>
      </trkpt>
      <trkpt lat="49.02177" lon="7.86386">
        <ele>361.1124268</ele>
        <time>2013-05-08T13:28:30Z</time>
      </trkpt>
      <trkpt lat="49.02179" lon="7.86379">
        <ele>360.6317139</ele>
        <time>2013-05-08T13:28:34Z</time>
      </trkpt>
      <trkpt lat="49.02179" lon="7.86371">
        <ele>361.1124268</ele>
        <time>2013-05-08T13:28:39Z</time>
      </trkpt>
      <trkpt lat="49.02179" lon="7.86351">
        <ele>360.6317139</ele>
        <time>2013-05-08T13:28:51Z</time>
      </trkpt>
      <trkpt lat="49.02169" lon="7.86333">
        <ele>360.6317139</ele>
        <time>2013-05-08T13:29:06Z</time>
      </trkpt>
      <trkpt lat="49.02156" lon="7.86298">
        <ele>359.6704102</ele>
        <time>2013-05-08T13:29:28Z</time>
      </trkpt>
      <trkpt lat="49.02156" lon="7.86293">
        <ele>358.7089844</ele>
        <time>2013-05-08T13:29:31Z</time>
      </trkpt>
      <trkpt lat="49.02148" lon="7.86271">
        <ele>358.2283936</ele>
        <time>2013-05-08T13:29:45Z</time>
      </trkpt>
      <trkpt lat="49.02137" lon="7.86245">
        <ele>357.2670898</ele>
        <time>2013-05-08T13:30:04Z</time>
      </trkpt>
      <trkpt lat="49.02133" lon="7.86238">
        <ele>356.786377</ele>
        <time>2013-05-08T13:30:10Z</time>
      </trkpt>
      <trkpt lat="49.02131" lon="7.86237">
        <ele>357.2670898</ele>
        <time>2013-05-08T13:30:12Z</time>
      </trkpt>
      <trkpt lat="49.02123" lon="7.86226">
        <ele>356.3057861</ele>
        <time>2013-05-08T13:30:21Z</time>
      </trkpt>
      <trkpt lat="49.02112" lon="7.862">
        <ele>354.3831787</ele>
        <time>2013-05-08T13:30:38Z</time>
      </trkpt>
      <trkpt lat="49.02108" lon="7.86195">
        <ele>354.3831787</ele>
        <time>2013-05-08T13:30:42Z</time>
      </trkpt>
      <trkpt lat="49.02105" lon="7.8619">
        <ele>353.9025879</ele>
        <time>2013-05-08T13:30:45Z</time>
      </trkpt>
      <trkpt lat="49.02102" lon="7.86186">
        <ele>353.421875</ele>
        <time>2013-05-08T13:30:48Z</time>
      </trkpt>
      <trkpt lat="49.02095" lon="7.86166">
        <ele>352.4605713</ele>
        <time>2013-05-08T13:31:01Z</time>
      </trkpt>
      <trkpt lat="49.02093" lon="7.86164">
        <ele>352.4605713</ele>
        <time>2013-05-08T13:31:04Z</time>
      </trkpt>
      <trkpt lat="49.02089" lon="7.86146">
        <ele>351.4991455</ele>
        <time>2013-05-08T13:31:17Z</time>
      </trkpt>
      <trkpt lat="49.02085" lon="7.86138">
        <ele>350.5378418</ele>
        <time>2013-05-08T13:31:22Z</time>
      </trkpt>
      <trkpt lat="49.02081" lon="7.8612">
        <ele>350.057251</ele>
        <time>2013-05-08T13:31:31Z</time>
      </trkpt>
      <trkpt lat="49.02079" lon="7.86115">
        <ele>350.057251</ele>
        <time>2013-05-08T13:31:35Z</time>
      </trkpt>
      <trkpt lat="49.0207" lon="7.86094">
        <ele>346.692627</ele>
        <time>2013-05-08T13:31:53Z</time>
      </trkpt>
      <trkpt lat="49.02071" lon="7.86092">
        <ele>346.692627</ele>
        <time>2013-05-08T13:31:54Z</time>
      </trkpt>
      <trkpt lat="49.0206" lon="7.86061">
        <ele>344.2894287</ele>
        <time>2013-05-08T13:32:12Z</time>
      </trkpt>
      <trkpt lat="49.0206" lon="7.86059">
        <ele>344.2894287</ele>
        <time>2013-05-08T13:32:13Z</time>
      </trkpt>
      <trkpt lat="49.02056" lon="7.86046">
        <ele>342.84729</ele>
        <time>2013-05-08T13:32:20Z</time>
      </trkpt>
      <trkpt lat="49.02053" lon="7.86043">
        <ele>343.3278809</ele>
        <time>2013-05-08T13:32:23Z</time>
      </trkpt>
      <trkpt lat="49.02049" lon="7.86033">
        <ele>343.8085938</ele>
        <time>2013-05-08T13:32:35Z</time>
      </trkpt>
      <trkpt lat="49.02045" lon="7.86021">
        <ele>343.8085938</ele>
        <time>2013-05-08T13:32:41Z</time>
      </trkpt>
      <trkpt lat="49.02042" lon="7.86014">
        <ele>343.3278809</ele>
        <time>2013-05-08T13:32:46Z</time>
      </trkpt>
      <trkpt lat="49.0204" lon="7.86009">
        <ele>343.3278809</ele>
        <time>2013-05-08T13:32:49Z</time>
      </trkpt>
      <trkpt lat="49.02038" lon="7.86004">
        <ele>343.3278809</ele>
        <time>2013-05-08T13:32:52Z</time>
      </trkpt>
      <trkpt lat="49.02035" lon="7.85982">
        <ele>341.8859863</ele>
        <time>2013-05-08T13:33:06Z</time>
      </trkpt>
      <trkpt lat="49.0203" lon="7.85975">
        <ele>341.4052734</ele>
        <time>2013-05-08T13:33:15Z</time>
      </trkpt>
      <trkpt lat="49.02025" lon="7.85959">
        <ele>340.9246826</ele>
        <time>2013-05-08T13:33:27Z</time>
      </trkpt>
      <trkpt lat="49.02024" lon="7.85953">
        <ele>340.9246826</ele>
        <time>2013-05-08T13:33:31Z</time>
      </trkpt>
      <trkpt lat="49.02017" lon="7.85937">
        <ele>340.9246826</ele>
        <time>2013-05-08T13:33:42Z</time>
      </trkpt>
      <trkpt lat="49.02009" lon="7.85915">
        <ele>340.4440918</ele>
        <time>2013-05-08T13:33:56Z</time>
      </trkpt>
      <trkpt lat="49.02" lon="7.85901">
        <ele>340.4440918</ele>
        <time>2013-05-08T13:34:07Z</time>
      </trkpt>
      <trkpt lat="49.01992" lon="7.85881">
        <ele>340.4440918</ele>
        <time>2013-05-08T13:34:20Z</time>
      </trkpt>
      <trkpt lat="49.01991" lon="7.85874">
        <ele>340.4440918</ele>
        <time>2013-05-08T13:34:23Z</time>
      </trkpt>
      <trkpt lat="49.01991" lon="7.85856">
        <ele>340.4440918</ele>
        <time>2013-05-08T13:34:39Z</time>
      </trkpt>
      <trkpt lat="49.0199" lon="7.85839">
        <ele>340.4440918</ele>
        <time>2013-05-08T13:34:53Z</time>
      </trkpt>
      <trkpt lat="49.0199" lon="7.85824">
        <ele>341.4052734</ele>
        <time>2013-05-08T13:35:07Z</time>
      </trkpt>
      <trkpt lat="49.01991" lon="7.85805">
        <ele>341.8859863</ele>
        <time>2013-05-08T13:35:23Z</time>
      </trkpt>
      <trkpt lat="49.0199" lon="7.85788">
        <ele>342.3666992</ele>
        <time>2013-05-08T13:35:35Z</time>
      </trkpt>
      <trkpt lat="49.01991" lon="7.85763">
        <ele>344.2894287</ele>
        <time>2013-05-08T13:35:53Z</time>
      </trkpt>
      <trkpt lat="49.01993" lon="7.85738">
        <ele>347.1732178</ele>
        <time>2013-05-08T13:36:20Z</time>
      </trkpt>
      <trkpt lat="49.01997" lon="7.85723">
        <ele>349.0958252</ele>
        <time>2013-05-08T13:36:33Z</time>
      </trkpt>
      <trkpt lat="49.02" lon="7.85707">
        <ele>351.4991455</ele>
        <time>2013-05-08T13:36:47Z</time>
      </trkpt>
      <trkpt lat="49.02" lon="7.85691">
        <ele>353.421875</ele>
        <time>2013-05-08T13:37:00Z</time>
      </trkpt>
      <trkpt lat="49.01997" lon="7.85674">
        <ele>355.3444824</ele>
        <time>2013-05-08T13:37:13Z</time>
      </trkpt>
      <trkpt lat="49.01994" lon="7.85648">
        <ele>357.2670898</ele>
        <time>2013-05-08T13:37:27Z</time>
      </trkpt>
      <trkpt lat="49.01994" lon="7.85627">
        <ele>357.7478027</ele>
        <time>2013-05-08T13:37:40Z</time>
      </trkpt>
      <trkpt lat="49.01991" lon="7.8561">
        <ele>357.7478027</ele>
        <time>2013-05-08T13:37:50Z</time>
      </trkpt>
      <trkpt lat="49.01979" lon="7.85583">
        <ele>358.2283936</ele>
        <time>2013-05-08T13:38:09Z</time>
      </trkpt>
      <trkpt lat="49.01965" lon="7.85541">
        <ele>359.6704102</ele>
        <time>2013-05-08T13:38:35Z</time>
      </trkpt>
      <trkpt lat="49.01963" lon="7.85538">
        <ele>359.6704102</ele>
        <time>2013-05-08T13:38:52Z</time>
      </trkpt>
      <trkpt lat="49.01963" lon="7.85535">
        <ele>359.6704102</ele>
        <time>2013-05-08T13:39:25Z</time>
      </trkpt>
      <trkpt lat="49.01955" lon="7.8551">
        <ele>360.151123</ele>
        <time>2013-05-08T13:39:42Z</time>
      </trkpt>
      <trkpt lat="49.01942" lon="7.85469">
        <ele>360.6317139</ele>
        <time>2013-05-08T13:40:05Z</time>
      </trkpt>
      <trkpt lat="49.01926" lon="7.85423">
        <ele>361.5931396</ele>
        <time>2013-05-08T13:40:34Z</time>
      </trkpt>
      <trkpt lat="49.01911" lon="7.85379">
        <ele>362.0737305</ele>
        <time>2013-05-08T13:41:03Z</time>
      </trkpt>
      <trkpt lat="49.01897" lon="7.85338">
        <ele>362.5543213</ele>
        <time>2013-05-08T13:41:30Z</time>
      </trkpt>
      <trkpt lat="49.01896" lon="7.85333">
        <ele>362.5543213</ele>
        <time>2013-05-08T13:41:33Z</time>
      </trkpt>
      <trkpt lat="49.01882" lon="7.85282">
        <ele>363.0350342</ele>
        <time>2013-05-08T13:42:06Z</time>
      </trkpt>
      <trkpt lat="49.01873" lon="7.85248">
        <ele>363.5157471</ele>
        <time>2013-05-08T13:42:27Z</time>
      </trkpt>
      <trkpt lat="49.01859" lon="7.85201">
        <ele>363.5157471</ele>
        <time>2013-05-08T13:42:57Z</time>
      </trkpt>
      <trkpt lat="49.01848" lon="7.85165">
        <ele>362.0737305</ele>
        <time>2013-05-08T13:43:22Z</time>
      </trkpt>
      <trkpt lat="49.01849" lon="7.85154">
        <ele>361.5931396</ele>
        <time>2013-05-08T13:43:29Z</time>
      </trkpt>
      <trkpt lat="49.0185" lon="7.85149">
        <ele>361.5931396</ele>
        <time>2013-05-08T13:43:32Z</time>
      </trkpt>
      <trkpt lat="49.01847" lon="7.8514">
        <ele>362.5543213</ele>
        <time>2013-05-08T13:43:47Z</time>
      </trkpt>
      <trkpt lat="49.01844" lon="7.85139">
        <ele>361.1124268</ele>
        <time>2013-05-08T13:44:32Z</time>
      </trkpt>
      <trkpt lat="49.01847" lon="7.85123">
        <ele>361.1124268</ele>
        <time>2013-05-08T13:44:40Z</time>
      </trkpt>
      <trkpt lat="49.01852" lon="7.85121">
        <ele>361.1124268</ele>
        <time>2013-05-08T13:44:44Z</time>
      </trkpt>
      <trkpt lat="49.01865" lon="7.85122">
        <ele>364.4769287</ele>
        <time>2013-05-08T13:58:51Z</time>
      </trkpt>
    </trkseg>
  </trk>
</gpx>